Observation data for Dozier on 04/22/2019      Previous  Date  Next       Current Mesonet Observations  Soil Data  Daily Summary Page  Observations in Plain Language
KDO1 220500Z 16006KT 20/14 A2984 RMK A01 T01980140  RH  069%=      5-min Rain = 0
KDO1 220501Z 16005KT 20/14 A2984 RMK A01 T01970140  RH  069%=      5-min Rain = 0
KDO1 220502Z 16005KT 20/14 A2984 RMK A01 T01960139  RH  070%=      5-min Rain = 0
KDO1 220503Z 15005KT 20/14 A2984 RMK A01 T01950139  RH  070%=      5-min Rain = 0
KDO1 220504Z 15005KT 20/14 A2984 RMK A01 T01950139  RH  070%=      5-min Rain = 0
KDO1 220505Z 15004KT 19/14 A2984 RMK A01 T01940139  RH  070%=      5-min Rain = 0
KDO1 220506Z 16004KT 19/14 A2984 RMK A01 T01940139  RH  071%=      5-min Rain = 0
KDO1 220507Z 16005KT 19/14 A2984 RMK A01 T01940140  RH  071%=      5-min Rain = 0
KDO1 220508Z 15006KT 19/14 A2984 RMK A01 T01940140  RH  071%=      5-min Rain = 0
KDO1 220509Z 17004KT 19/14 A2984 RMK A01 T01940139  RH  071%=      5-min Rain = 0
KDO1 220510Z 17005KT 19/14 A2984 RMK A01 T01940139  RH  071%=      5-min Rain = 0
KDO1 220511Z 17005KT 19/14 A2984 RMK A01 T01930140  RH  071%=      5-min Rain = 0
KDO1 220512Z 16006KT 19/14 A2984 RMK A01 T01930141  RH  071%=      5-min Rain = 0
KDO1 220513Z 16006KT 19/14 A2984 RMK A01 T01940141  RH  071%=      5-min Rain = 0
KDO1 220514Z 16006KT 19/14 A2984 RMK A01 T01940141  RH  072%=      5-min Rain = 0
KDO1 220515Z 17004KT 19/14 A2984 RMK A01 T01940142  RH  072%=      5-min Rain = 0
KDO1 220516Z 16005KT 20/14 A2984 RMK A01 T01950142  RH  071%=      5-min Rain = 0
KDO1 220517Z 15006KT 19/14 A2984 RMK A01 T01940142  RH  072%=      5-min Rain = 0
KDO1 220518Z 16006KT 19/14 A2984 RMK A01 T01940143  RH  072%=      5-min Rain = 0
KDO1 220519Z 15006KT 19/14 A2984 RMK A01 T01940143  RH  072%=      5-min Rain = 0
KDO1 220520Z 16006KT 19/14 A2984 RMK A01 T01940143  RH  072%=      5-min Rain = 0
KDO1 220521Z 15006KT 19/14 A2984 RMK A01 T01940143  RH  073%=      5-min Rain = 0
KDO1 220522Z 15005KT 19/14 A2984 RMK A01 T01940144  RH  073%=      5-min Rain = 0
KDO1 220523Z 15006KT 19/14 A2984 RMK A01 T01930144  RH  073%=      5-min Rain = 0
KDO1 220524Z 16006KT 19/14 A2984 RMK A01 T01930144  RH  073%=      5-min Rain = 0
KDO1 220525Z 15005KT 19/14 A2984 RMK A01 T01940144  RH  073%=      5-min Rain = 0
KDO1 220526Z 15005KT 20/14 A2984 RMK A01 T01950144  RH  072%=      5-min Rain = 0
KDO1 220527Z 15005KT 20/14 A2984 RMK A01 T01950144  RH  073%=      5-min Rain = 0
KDO1 220528Z 16004KT 20/15 A2984 RMK A01 T01950145  RH  073%=      5-min Rain = 0
KDO1 220529Z 15005KT 20/15 A2984 RMK A01 T01950145  RH  073%=      5-min Rain = 0
KDO1 220530Z 14005KT 20/15 A2984 RMK A01 T01950145  RH  073%=      5-min Rain = 0
KDO1 220531Z 14005KT 20/15 A2984 RMK A01 T01950145  RH  073%=      5-min Rain = 0
KDO1 220532Z 14005KT 19/15 A2984 RMK A01 T01940145  RH  073%=      5-min Rain = 0
KDO1 220533Z 14004KT 19/14 A2984 RMK A01 T01940144  RH  073%=      5-min Rain = 0
KDO1 220534Z 14004KT 19/14 A2984 RMK A01 T01930144  RH  073%=      5-min Rain = 0
KDO1 220535Z 14004KT 19/14 A2984 RMK A01 T01920144  RH  074%=      5-min Rain = 0
KDO1 220536Z 13004KT 19/14 A2984 RMK A01 T01920144  RH  074%=      5-min Rain = 0
KDO1 220537Z 13005KT 19/14 A2984 RMK A01 T01910144  RH  074%=      5-min Rain = 0
KDO1 220538Z 13005KT 19/14 A2984 RMK A01 T01900144  RH  074%=      5-min Rain = 0
KDO1 220539Z 13005KT 19/14 A2984 RMK A01 T01900143  RH  074%=      5-min Rain = 0
KDO1 220540Z 13005KT 19/14 A2984 RMK A01 T01890143  RH  075%=      5-min Rain = 0
KDO1 220541Z 14005KT 19/14 A2984 RMK A01 T01880143  RH  075%=      5-min Rain = 0
KDO1 220542Z 14006KT 19/14 A2984 RMK A01 T01870143  RH  076%=      5-min Rain = 0
KDO1 220543Z 14005KT 19/14 A2984 RMK A01 T01870144  RH  076%=      5-min Rain = 0
KDO1 220544Z 14006KT 19/14 A2984 RMK A01 T01860144  RH  076%=      5-min Rain = 0
KDO1 220545Z 14005KT 19/14 A2984 RMK A01 T01860144  RH  077%=      5-min Rain = 0
KDO1 220546Z 15006KT 19/14 A2984 RMK A01 T01860144  RH  077%=      5-min Rain = 0
KDO1 220547Z 14006KT 19/15 A2984 RMK A01 T01860145  RH  077%=      5-min Rain = 0
KDO1 220548Z 15007KT 19/15 A2984 RMK A01 T01860145  RH  077%=      5-min Rain = 0
KDO1 220549Z 15006KT 19/15 A2984 RMK A01 T01850145  RH  077%=      5-min Rain = 0
KDO1 220550Z 15006KT 19/15 A2984 RMK A01 T01850146  RH  078%=      5-min Rain = 0
KDO1 220551Z 15007KT 19/15 A2984 RMK A01 T01850145  RH  078%=      5-min Rain = 0
KDO1 220552Z 15008KT 19/15 A2984 RMK A01 T01860146  RH  077%=      5-min Rain = 0
KDO1 220553Z 15008KT 19/15 A2984 RMK A01 T01870146  RH  077%=      5-min Rain = 0
KDO1 220554Z 15009KT 19/15 A2984 RMK A01 T01880147  RH  077%=      5-min Rain = 0
KDO1 220555Z 15009KT 19/15 A2984 RMK A01 T01890147  RH  076%=      5-min Rain = 0
KDO1 220556Z 16009KT 19/15 A2984 RMK A01 T01900147  RH  076%=      5-min Rain = 0
KDO1 220557Z 16006KT 19/15 A2984 RMK A01 T01910147  RH  076%=      5-min Rain = 0
KDO1 220558Z 16007KT 19/15 A2984 RMK A01 T01910147  RH  075%=      5-min Rain = 0
KDO1 220559Z 16007KT 19/15 A2984 RMK A01 T01910147  RH  075%=      5-min Rain = 0
KDO1 220600Z 16008KT 19/15 A2984 RMK A01 T01900147  RH  076%=      5-min Rain = 0
KDO1 220601Z 17007KT 19/15 A2984 RMK A01 T01900147  RH  076%=      5-min Rain = 0
KDO1 220602Z 16008KT 19/15 A2984 RMK A01 T01890147  RH  076%=      5-min Rain = 0
KDO1 220603Z 16007KT 19/15 A2984 RMK A01 T01890147  RH  077%=      5-min Rain = 0
KDO1 220604Z 16007KT 19/15 A2984 RMK A01 T01870147  RH  077%=      5-min Rain = 0
KDO1 220605Z 16006KT 19/15 A2984 RMK A01 T01870147  RH  078%=      5-min Rain = 0
KDO1 220606Z 16007KT 19/15 A2984 RMK A01 T01860147  RH  078%=      5-min Rain = 0
KDO1 220607Z 16009KT 19/15 A2984 RMK A01 T01860147  RH  078%=      5-min Rain = 0
KDO1 220608Z 16009KT 19/15 A2984 RMK A01 T01870147  RH  078%=      5-min Rain = 0
KDO1 220609Z 16009KT 19/15 A2984 RMK A01 T01880148  RH  077%=      5-min Rain = 0
KDO1 220610Z 16008KT 19/15 A2984 RMK A01 T01890148  RH  077%=      5-min Rain = 0
KDO1 220611Z 16008KT 19/15 A2984 RMK A01 T01890148  RH  077%=      5-min Rain = 0
KDO1 220612Z 16009KT 19/15 A2984 RMK A01 T01900148  RH  076%=      5-min Rain = 0
KDO1 220613Z 16007KT 19/15 A2984 RMK A01 T01900148  RH  076%=      5-min Rain = 0
KDO1 220614Z 16008KT 19/15 A2984 RMK A01 T01900148  RH  076%=      5-min Rain = 0
KDO1 220615Z 16007KT 19/15 A2984 RMK A01 T01910148  RH  076%=      5-min Rain = 0
KDO1 220616Z 16007KT 19/15 A2984 RMK A01 T01910147  RH  076%=      5-min Rain = 0
KDO1 220617Z 16008KT 19/15 A2984 RMK A01 T01890147  RH  076%=      5-min Rain = 0
KDO1 220618Z 15007KT 19/15 A2984 RMK A01 T01890147  RH  077%=      5-min Rain = 0
KDO1 220619Z 16007KT 19/15 A2984 RMK A01 T01890147  RH  077%=      5-min Rain = 0
KDO1 220620Z 16008KT 19/15 A2984 RMK A01 T01890147  RH  077%=      5-min Rain = 0
KDO1 220621Z 16007KT 19/15 A2984 RMK A01 T01890147  RH  077%=      5-min Rain = 0
KDO1 220622Z 16007KT 19/15 A2985 RMK A01 T01900147  RH  076%=      5-min Rain = 0
KDO1 220623Z 16007KT 19/15 A2985 RMK A01 T01890147  RH  076%=      5-min Rain = 0
KDO1 220624Z 16007KT 19/15 A2985 RMK A01 T01900147  RH  076%=      5-min Rain = 0
KDO1 220625Z 15007KT 19/15 A2985 RMK A01 T01900147  RH  076%=      5-min Rain = 0
KDO1 220626Z 16006KT 19/15 A2985 RMK A01 T01900147  RH  076%=      5-min Rain = 0
KDO1 220627Z 16006KT 19/15 A2985 RMK A01 T01890147  RH  076%=      5-min Rain = 0
KDO1 220628Z 16006KT 19/15 A2985 RMK A01 T01890147  RH  076%=      5-min Rain = 0
KDO1 220629Z 17007KT 19/15 A2985 RMK A01 T01890146  RH  076%=      5-min Rain = 0
KDO1 220630Z 17007KT 19/15 A2985 RMK A01 T01890146  RH  076%=      5-min Rain = 0
KDO1 220631Z 17007KT 19/15 A2985 RMK A01 T01890146  RH  076%=      5-min Rain = 0
KDO1 220632Z 17007KT 19/15 A2985 RMK A01 T01890145  RH  076%=      5-min Rain = 0
KDO1 220633Z 17005KT 19/15 A2985 RMK A01 T01900145  RH  075%=      5-min Rain = 0
KDO1 220634Z 17007KT 19/14 A2985 RMK A01 T01900144  RH  075%=      5-min Rain = 0
KDO1 220635Z 16007KT 19/14 A2985 RMK A01 T01900144  RH  075%=      5-min Rain = 0
KDO1 220636Z 17007KT 19/14 A2985 RMK A01 T01900144  RH  074%=      5-min Rain = 0
KDO1 220637Z 17007KT 19/14 A2985 RMK A01 T01900143  RH  074%=      5-min Rain = 0
KDO1 220638Z 17005KT 19/14 A2985 RMK A01 T01900143  RH  074%=      5-min Rain = 0
KDO1 220639Z 17006KT 19/14 A2985 RMK A01 T01890143  RH  074%=      5-min Rain = 0
KDO1 220640Z 16007KT 19/14 A2985 RMK A01 T01890143  RH  074%=      5-min Rain = 0
KDO1 220641Z 16006KT 19/14 A2985 RMK A01 T01880142  RH  075%=      5-min Rain = 0
KDO1 220642Z 16005KT 19/14 A2985 RMK A01 T01880142  RH  075%=      5-min Rain = 0
KDO1 220643Z 16006KT 19/14 A2985 RMK A01 T01860142  RH  075%=      5-min Rain = 0
KDO1 220644Z 15006KT 19/14 A2985 RMK A01 T01860142  RH  075%=      5-min Rain = 0
KDO1 220645Z 15006KT 19/14 A2985 RMK A01 T01860142  RH  076%=      5-min Rain = 0
KDO1 220646Z 15006KT 19/14 A2985 RMK A01 T01850142  RH  076%=      5-min Rain = 0
KDO1 220647Z 15006KT 18/14 A2985 RMK A01 T01840142  RH  076%=      5-min Rain = 0
KDO1 220648Z 15006KT 18/14 A2985 RMK A01 T01840142  RH  076%=      5-min Rain = 0
KDO1 220649Z 15007KT 18/14 A2985 RMK A01 T01840142  RH  077%=      5-min Rain = 0
KDO1 220650Z 15006KT 18/14 A2985 RMK A01 T01840142  RH  076%=      5-min Rain = 0
KDO1 220651Z 15007KT 18/14 A2985 RMK A01 T01840141  RH  076%=      5-min Rain = 0
KDO1 220652Z 15007KT 19/14 A2985 RMK A01 T01850141  RH  076%=      5-min Rain = 0
KDO1 220653Z 15007KT 19/14 A2985 RMK A01 T01860141  RH  075%=      5-min Rain = 0
KDO1 220654Z 14007KT 19/14 A2985 RMK A01 T01870142  RH  075%=      5-min Rain = 0
KDO1 220655Z 15007KT 19/14 A2985 RMK A01 T01860142  RH  075%=      5-min Rain = 0
KDO1 220656Z 15008KT 19/14 A2985 RMK A01 T01860142  RH  075%=      5-min Rain = 0
KDO1 220657Z 15008KT 19/14 A2984 RMK A01 T01860142  RH  075%=      5-min Rain = 0
KDO1 220658Z 15008KT 19/14 A2984 RMK A01 T01860141  RH  075%=      5-min Rain = 0
KDO1 220659Z 15007KT 19/14 A2984 RMK A01 T01860141  RH  075%=      5-min Rain = 0
KDO1 220700Z 16008KT 19/14 A2984 RMK A01 T01860141  RH  075%=      5-min Rain = 0
KDO1 220701Z 16008KT 19/14 A2984 RMK A01 T01860140  RH  075%=      5-min Rain = 0
KDO1 220702Z 15009KT 19/14 A2984 RMK A01 T01860141  RH  075%=      5-min Rain = 0
KDO1 220703Z 15008KT 19/14 A2984 RMK A01 T01860141  RH  075%=      5-min Rain = 0
KDO1 220704Z 15007KT 19/14 A2984 RMK A01 T01860140  RH  075%=      5-min Rain = 0
KDO1 220705Z 16008KT 19/14 A2984 RMK A01 T01870140  RH  074%=      5-min Rain = 0
KDO1 220706Z 15009KT 19/14 A2984 RMK A01 T01870140  RH  074%=      5-min Rain = 0
KDO1 220707Z 16009KT 19/14 A2984 RMK A01 T01870140  RH  074%=      5-min Rain = 0
KDO1 220708Z 15007KT 19/14 A2984 RMK A01 T01870139  RH  074%=      5-min Rain = 0
KDO1 220709Z 16007KT 19/14 A2984 RMK A01 T01870140  RH  074%=      5-min Rain = 0
KDO1 220710Z 16008KT 19/14 A2984 RMK A01 T01860140  RH  074%=      5-min Rain = 0
KDO1 220711Z 16007KT 19/14 A2984 RMK A01 T01860140  RH  075%=      5-min Rain = 0
KDO1 220712Z 16007KT 19/14 A2984 RMK A01 T01860139  RH  074%=      5-min Rain = 0
KDO1 220713Z 16008KT 19/14 A2984 RMK A01 T01860139  RH  074%=      5-min Rain = 0
KDO1 220714Z 15006KT 19/14 A2984 RMK A01 T01850139  RH  074%=      5-min Rain = 0
KDO1 220715Z 16007KT 19/14 A2984 RMK A01 T01850139  RH  075%=      5-min Rain = 0
KDO1 220716Z 16008KT 18/14 A2983 RMK A01 T01840138  RH  074%=      5-min Rain = 0
KDO1 220717Z 16008KT 18/14 A2984 RMK A01 T01840137  RH  074%=      5-min Rain = 0
KDO1 220718Z 16007KT 18/14 A2983 RMK A01 T01840137  RH  074%=      5-min Rain = 0
KDO1 220719Z 16007KT 18/14 A2983 RMK A01 T01840137  RH  074%=      5-min Rain = 0
KDO1 220720Z 16007KT 18/14 A2983 RMK A01 T01830137  RH  074%=      5-min Rain = 0
KDO1 220721Z 16007KT 18/14 A2983 RMK A01 T01820136  RH  074%=      5-min Rain = 0
KDO1 220722Z 16007KT 18/14 A2983 RMK A01 T01810135  RH  074%=      5-min Rain = 0
KDO1 220723Z 16007KT 18/14 A2983 RMK A01 T01810135  RH  074%=      5-min Rain = 0
KDO1 220724Z 16006KT 18/13 A2983 RMK A01 T01800134  RH  075%=      5-min Rain = 0
KDO1 220725Z 16007KT 18/13 A2983 RMK A01 T01800134  RH  075%=      5-min Rain = 0
KDO1 220726Z 16007KT 18/13 A2984 RMK A01 T01790133  RH  075%=      5-min Rain = 0
KDO1 220727Z 16007KT 18/13 A2984 RMK A01 T01790133  RH  074%=      5-min Rain = 0
KDO1 220728Z 16007KT 18/13 A2984 RMK A01 T01790132  RH  074%=      5-min Rain = 0
KDO1 220729Z 16007KT 18/13 A2984 RMK A01 T01790131  RH  074%=      5-min Rain = 0
KDO1 220730Z 16006KT 18/13 A2984 RMK A01 T01780131  RH  074%=      5-min Rain = 0
KDO1 220731Z 16006KT 18/13 A2983 RMK A01 T01780131  RH  074%=      5-min Rain = 0
KDO1 220732Z 16005KT 18/13 A2983 RMK A01 T01780131  RH  074%=      5-min Rain = 0
KDO1 220733Z 16006KT 18/13 A2983 RMK A01 T01770131  RH  074%=      5-min Rain = 0
KDO1 220734Z 16006KT 18/13 A2983 RMK A01 T01760130  RH  074%=      5-min Rain = 0
KDO1 220735Z 16007KT 18/13 A2983 RMK A01 T01760130  RH  075%=      5-min Rain = 0
KDO1 220736Z 16007KT 18/13 A2983 RMK A01 T01750130  RH  075%=      5-min Rain = 0
KDO1 220737Z 16007KT 18/13 A2983 RMK A01 T01760130  RH  074%=      5-min Rain = 0
KDO1 220738Z 16008KT 18/13 A2983 RMK A01 T01750129  RH  074%=      5-min Rain = 0
KDO1 220739Z 16008KT 18/13 A2983 RMK A01 T01760129  RH  074%=      5-min Rain = 0
KDO1 220740Z 16009KT 18/13 A2983 RMK A01 T01770127  RH  073%=      5-min Rain = 0
KDO1 220741Z 16009KT 18/13 A2983 RMK A01 T01770126  RH  072%=      5-min Rain = 0
KDO1 220742Z 16009KT 18/12 A2983 RMK A01 T01780124  RH  071%=      5-min Rain = 0
KDO1 220743Z 16010KT 18/12 A2983 RMK A01 T01790123  RH  070%=      5-min Rain = 0
KDO1 220744Z 17008KT 18/12 A2983 RMK A01 T01810124  RH  069%=      5-min Rain = 0
KDO1 220745Z 17008KT 18/13 A2983 RMK A01 T01820125  RH  070%=      5-min Rain = 0
KDO1 220746Z 17008KT 18/13 A2983 RMK A01 T01810126  RH  070%=      5-min Rain = 0
KDO1 220747Z 17007KT 18/13 A2983 RMK A01 T01800126  RH  071%=      5-min Rain = 0
KDO1 220748Z 18007KT 18/13 A2984 RMK A01 T01780125  RH  071%=      5-min Rain = 0
KDO1 220749Z 19006KT 18/13 A2984 RMK A01 T01770125  RH  071%=      5-min Rain = 0
KDO1 220750Z 22005KT 18/13 A2984 RMK A01 T01760125  RH  072%=      5-min Rain = 0
KDO1 220751Z 27007KT 17/12 A2985 RMK A01 T01730124  RH  073%=      5-min Rain = 0
KDO1 220752Z 28013KT 17/12 A2985 RMK A01 T01710122  RH  073%=      5-min Rain = 0
KDO1 220753Z 29011KT 17/12 A2986 RMK A01 T01690123  RH  074%=      5-min Rain = 0
KDO1 220754Z 32011KT 17/12 A2986 RMK A01 T01680124  RH  075%=      5-min Rain = 0
KDO1 220755Z 30013KT 17/12 A2986 RMK A01 T01680123  RH  075%=      5-min Rain = 0
KDO1 220756Z 29010KT 17/12 A2986 RMK A01 T01710120  RH  072%=      5-min Rain = 0
KDO1 220757Z 28007KT 17/12 A2986 RMK A01 T01740119  RH  070%=      5-min Rain = 0
KDO1 220758Z 25007KT 18/12 A2986 RMK A01 T01750116  RH  068%=      5-min Rain = 0
KDO1 220759Z 26008KT 18/11 A2986 RMK A01 T01780111  RH  065%=      5-min Rain = 0
KDO1 220800Z 30007KT 18/11 A2986 RMK A01 T01840112  RH  063%=      5-min Rain = 0
KDO1 220801Z 31009KT 19/11 A2987 RMK A01 T01850113  RH  063%=      5-min Rain = 0
KDO1 220802Z 31009KT 18/11 A2987 RMK A01 T01830114  RH  064%=      5-min Rain = 0
KDO1 220803Z 31010KT 18/12 A2987 RMK A01 T01810115  RH  065%=      5-min Rain = 0
KDO1 220804Z 31007KT 18/12 A2987 RMK A01 T01800116  RH  066%=      5-min Rain = 0
KDO1 220805Z 31004KT 18/12 A2987 RMK A01 T01800117  RH  067%=      5-min Rain = 0
KDO1 220806Z 32003KT 18/12 A2986 RMK A01 T01800117  RH  067%=      5-min Rain = 0
KDO1 220807Z 29002KT 18/12 A2986 RMK A01 T01800115  RH  066%=      5-min Rain = 0
KDO1 220808Z 24003KT 18/12 A2986 RMK A01 T01790116  RH  066%=      5-min Rain = 0
KDO1 220809Z 27004KT 18/12 A2986 RMK A01 T01790117  RH  067%=      5-min Rain = 0
KDO1 220810Z 28006KT 18/12 A2986 RMK A01 T01770115  RH  067%=      5-min Rain = 0
KDO1 220811Z 26004KT 18/11 A2986 RMK A01 T01770109  RH  065%=      5-min Rain = 0
KDO1 220812Z 25004KT 18/11 A2986 RMK A01 T01780110  RH  064%=      5-min Rain = 0
KDO1 220813Z 23002KT 18/11 A2986 RMK A01 T01780112  RH  065%=      5-min Rain = 0
KDO1 220814Z 19003KT 18/11 A2985 RMK A01 T01780112  RH  065%=      5-min Rain = 0
KDO1 220815Z 19002KT 18/11 A2985 RMK A01 T01770111  RH  065%=      5-min Rain = 0
KDO1 220816Z 19003KT 18/11 A2986 RMK A01 T01770110  RH  065%=      5-min Rain = 0
KDO1 220817Z 23002KT 18/11 A2986 RMK A01 T01760110  RH  065%=      5-min Rain = 0
KDO1 220818Z 28002KT 18/11 A2986 RMK A01 T01750111  RH  066%=      5-min Rain = 0
KDO1 220819Z 31004KT 17/11 A2987 RMK A01 T01730111  RH  067%=      5-min Rain = 0
KDO1 220820Z 32005KT 17/11 A2987 RMK A01 T01690111  RH  069%=      5-min Rain = 0
KDO1 220821Z 33007KT 17/11 A2987 RMK A01 T01670114  RH  071%=      5-min Rain = 0
KDO1 220822Z 33006KT 17/12 A2987 RMK A01 T01660115  RH  072%=      5-min Rain = 0
KDO1 220823Z 33005KT 17/12 A2987 RMK A01 T01650115  RH  072%=      5-min Rain = 0
KDO1 220824Z 33003KT 16/11 A2987 RMK A01 T01640114  RH  072%=      5-min Rain = 0
KDO1 220825Z 32002KT 16/11 A2986 RMK A01 T01640114  RH  072%=      5-min Rain = 0
KDO1 220826Z 34002KT 16/12 A2986 RMK A01 T01640115  RH  072%=      5-min Rain = 0
KDO1 220827Z 34001KT 16/12 A2986 RMK A01 T01640115  RH  072%=      5-min Rain = 0
KDO1 220828Z 31000KT 17/12 A2986 RMK A01 T01650115  RH  072%=      5-min Rain = 0
KDO1 220829Z 29001KT 17/12 A2986 RMK A01 T01660115  RH  072%=      5-min Rain = 0
KDO1 220830Z 29002KT 17/12 A2986 RMK A01 T01680116  RH  071%=      5-min Rain = 0
KDO1 220831Z 25002KT 17/12 A2986 RMK A01 T01700115  RH  070%=      5-min Rain = 0
KDO1 220832Z 27001KT 17/11 A2986 RMK A01 T01690114  RH  070%=      5-min Rain = 0
KDO1 220833Z 23001KT 17/11 A2986 RMK A01 T01680113  RH  070%=      5-min Rain = 0
KDO1 220834Z 20001KT 17/11 A2986 RMK A01 T01670113  RH  070%=      5-min Rain = 0
KDO1 220835Z 17003KT 17/11 A2986 RMK A01 T01670113  RH  070%=      5-min Rain = 0
KDO1 220836Z 17003KT 17/11 A2985 RMK A01 T01680111  RH  069%=      5-min Rain = 0
KDO1 220837Z 16004KT 17/11 A2985 RMK A01 T01690111  RH  069%=      5-min Rain = 0
KDO1 220838Z 17005KT 17/11 A2985 RMK A01 T01670110  RH  069%=      5-min Rain = 0
KDO1 220839Z 16005KT 17/11 A2985 RMK A01 T01650109  RH  070%=      5-min Rain = 0
KDO1 220840Z 17005KT 16/11 A2985 RMK A01 T01640108  RH  070%=      5-min Rain = 0
KDO1 220841Z 16005KT 16/11 A2985 RMK A01 T01630108  RH  070%=      5-min Rain = 0
KDO1 220842Z 17004KT 16/11 A2985 RMK A01 T01630107  RH  069%=      5-min Rain = 0
KDO1 220843Z 17004KT 16/11 A2985 RMK A01 T01640107  RH  069%=      5-min Rain = 0
KDO1 220844Z 17002KT 16/11 A2985 RMK A01 T01640108  RH  069%=      5-min Rain = 0
KDO1 220845Z 22001KT 16/11 A2985 RMK A01 T01590107  RH  071%=      5-min Rain = 0
KDO1 220846Z 26001KT 15/11 A2985 RMK A01 T01530107  RH  074%=      5-min Rain = 0
KDO1 220847Z 28001KT 15/11 A2985 RMK A01 T01500108  RH  076%=      5-min Rain = 0
KDO1 220848Z 32002KT 15/11 A2986 RMK A01 T01490110  RH  077%=      5-min Rain = 0
KDO1 220849Z 33005KT 15/11 A2986 RMK A01 T01470111  RH  079%=      5-min Rain = 0
KDO1 220850Z 33006KT 15/11 A2986 RMK A01 T01460111  RH  079%=      5-min Rain = 0
KDO1 220851Z 32006KT 15/11 A2986 RMK A01 T01470111  RH  079%=      5-min Rain = 0
KDO1 220852Z 31007KT 15/11 A2987 RMK A01 T01510110  RH  077%=      5-min Rain = 0
KDO1 220853Z 31007KT 16/11 A2987 RMK A01 T01550109  RH  074%=      5-min Rain = 0
KDO1 220854Z 31007KT 16/11 A2987 RMK A01 T01590107  RH  072%=      5-min Rain = 0
KDO1 220855Z 31007KT 16/11 A2987 RMK A01 T01600106  RH  070%=      5-min Rain = 0
KDO1 220856Z 31007KT 16/11 A2987 RMK A01 T01610105  RH  069%=      5-min Rain = 0
KDO1 220857Z 32008KT 16/10 A2987 RMK A01 T01620104  RH  069%=      5-min Rain = 0
KDO1 220858Z 33010KT 16/10 A2987 RMK A01 T01610103  RH  068%=      5-min Rain = 0
KDO1 220859Z 32008KT 16/10 A2987 RMK A01 T01600102  RH  068%=      5-min Rain = 0
KDO1 220900Z 32009KT 16/10 A2987 RMK A01 T01590102  RH  069%=      5-min Rain = 0
KDO1 220901Z 33008KT 16/10 A2987 RMK A01 T01580101  RH  069%=      5-min Rain = 0
KDO1 220902Z 33009KT 16/10 A2987 RMK A01 T01570100  RH  069%=      5-min Rain = 0
KDO1 220903Z 34009KT 16/10 A2987 RMK A01 T01560100  RH  069%=      5-min Rain = 0
KDO1 220904Z 35009KT 16/10 A2987 RMK A01 T01560099  RH  069%=      5-min Rain = 0
KDO1 220905Z 34010KT 16/10 A2987 RMK A01 T01550099  RH  069%=      5-min Rain = 0
KDO1 220906Z 33009KT 15/10 A2987 RMK A01 T01540099  RH  070%=      5-min Rain = 0
KDO1 220907Z 34009KT 15/10 A2987 RMK A01 T01520097  RH  070%=      5-min Rain = 0
KDO1 220908Z 34011KT 15/10 A2987 RMK A01 T01510097  RH  070%=      5-min Rain = 0
KDO1 220909Z 34010KT 15/10 A2987 RMK A01 T01510095  RH  069%=      5-min Rain = 0
KDO1 220910Z 34010KT 15/09 A2988 RMK A01 T01510093  RH  069%=      5-min Rain = 0
KDO1 220911Z 34010KT 15/09 A2988 RMK A01 T01500092  RH  068%=      5-min Rain = 0
KDO1 220912Z 34010KT 15/09 A2988 RMK A01 T01510091  RH  067%=      5-min Rain = 0
KDO1 220913Z 34011KT 15/09 A2988 RMK A01 T01500089  RH  067%=      5-min Rain = 0
KDO1 220914Z 34012KT 15/09 A2988 RMK A01 T01500088  RH  067%=      5-min Rain = 0
KDO1 220915Z 34011G16KT 15/09 A2988 RMK A01 T01500087  RH  066%=      5-min Rain = 0
KDO1 220916Z 34014KT 15/09 A2988 RMK A01 T01490087  RH  066%=      5-min Rain = 0
KDO1 220917Z 34012KT 15/09 A2988 RMK A01 T01500086  RH  066%=      5-min Rain = 0
KDO1 220918Z 34013KT 15/09 A2988 RMK A01 T01490086  RH  066%=      5-min Rain = 0
KDO1 220919Z 34010KT 15/09 A2988 RMK A01 T01490086  RH  066%=      5-min Rain = 0
KDO1 220920Z 35012KT 15/09 A2988 RMK A01 T01480086  RH  066%=      5-min Rain = 0
KDO1 220921Z 35012KT 15/09 A2988 RMK A01 T01470085  RH  066%=      5-min Rain = 0
KDO1 220922Z 35011KT 15/09 A2988 RMK A01 T01470085  RH  066%=      5-min Rain = 0
KDO1 220923Z 36014KT 15/08 A2988 RMK A01 T01470084  RH  066%=      5-min Rain = 0
KDO1 220924Z 35012KT 15/08 A2988 RMK A01 T01470084  RH  066%=      5-min Rain = 0
KDO1 220925Z 35012KT 15/08 A2988 RMK A01 T01470084  RH  066%=      5-min Rain = 0
KDO1 220926Z 35011KT 15/08 A2988 RMK A01 T01470084  RH  066%=      5-min Rain = 0
KDO1 220927Z 35014KT 15/08 A2988 RMK A01 T01460084  RH  066%=      5-min Rain = 0
KDO1 220928Z 35011KT 15/08 A2988 RMK A01 T01460084  RH  066%=      5-min Rain = 0
KDO1 220929Z 35013KT 15/08 A2988 RMK A01 T01460084  RH  066%=      5-min Rain = 0
KDO1 220930Z 34013G18KT 15/09 A2988 RMK A01 T01460085  RH  067%=      5-min Rain = 0
KDO1 220931Z 35012KT 15/08 A2988 RMK A01 T01460084  RH  067%=      5-min Rain = 0
KDO1 220932Z 35010KT 15/08 A2989 RMK A01 T01450084  RH  067%=      5-min Rain = 0
KDO1 220933Z 35012KT 15/09 A2989 RMK A01 T01450085  RH  067%=      5-min Rain = 0
KDO1 220934Z 35013KT 14/09 A2989 RMK A01 T01440085  RH  068%=      5-min Rain = 0
KDO1 220935Z 35012KT 14/09 A2989 RMK A01 T01440085  RH  068%=      5-min Rain = 0
KDO1 220936Z 35012KT 14/09 A2989 RMK A01 T01440085  RH  068%=      5-min Rain = 0
KDO1 220937Z 35013KT 14/09 A2989 RMK A01 T01440086  RH  068%=      5-min Rain = 0
KDO1 220938Z 35013KT 14/09 A2989 RMK A01 T01440086  RH  068%=      5-min Rain = 0
KDO1 220939Z 35013KT 14/09 A2989 RMK A01 T01440086  RH  068%=      5-min Rain = 0
KDO1 220940Z 35012KT 14/09 A2989 RMK A01 T01440086  RH  068%=      5-min Rain = 0
KDO1 220941Z 35012KT 14/09 A2989 RMK A01 T01440087  RH  068%=      5-min Rain = 0
KDO1 220942Z 35010KT 14/09 A2989 RMK A01 T01440087  RH  069%=      5-min Rain = 0
KDO1 220943Z 35010KT 14/09 A2989 RMK A01 T01430087  RH  069%=      5-min Rain = 0
KDO1 220944Z 35013KT 14/09 A2989 RMK A01 T01420088  RH  070%=      5-min Rain = 0
KDO1 220945Z 35012KT 14/09 A299 RMK A01 T01410087  RH  070%=      5-min Rain = 0
KDO1 220946Z 35011KT 14/09 A299 RMK A01 T01420088  RH  070%=      5-min Rain = 0
KDO1 220947Z 35011KT 14/09 A299 RMK A01 T01420088  RH  070%=      5-min Rain = 0
KDO1 220948Z 36011G16KT 14/09 A299 RMK A01 T01420088  RH  070%=      5-min Rain = 0
KDO1 220949Z 36011G16KT 14/09 A299 RMK A01 T01420088  RH  070%=      5-min Rain = 0
KDO1 220950Z 35013KT 14/09 A299 RMK A01 T01420088  RH  070%=      5-min Rain = 0
KDO1 220951Z 36013KT 14/09 A299 RMK A01 T01420089  RH  070%=      5-min Rain = 0
KDO1 220952Z 35011KT 14/09 A299 RMK A01 T01430089  RH  070%=      5-min Rain = 0
KDO1 220953Z 35012KT 14/09 A299 RMK A01 T01420089  RH  070%=      5-min Rain = 0
KDO1 220954Z 35012KT 14/09 A299 RMK A01 T01430090  RH  070%=      5-min Rain = 0
KDO1 220955Z 35014KT 14/09 A299 RMK A01 T01430090  RH  070%=      5-min Rain = 0
KDO1 220956Z 35013KT 14/09 A299 RMK A01 T01430090  RH  070%=      5-min Rain = 0
KDO1 220957Z 36010KT 14/09 A299 RMK A01 T01440091  RH  070%=      5-min Rain = 0
KDO1 220958Z 35013KT 14/09 A299 RMK A01 T01440091  RH  071%=      5-min Rain = 0
KDO1 220959Z 35012KT 14/09 A299 RMK A01 T01440092  RH  071%=      5-min Rain = 0
KDO1 221000Z 35014KT 14/09 A299 RMK A01 T01430091  RH  071%=      5-min Rain = 0
KDO1 221001Z 35013KT 14/09 A299 RMK A01 T01440092  RH  071%=      5-min Rain = 0
KDO1 221002Z 36012KT 14/09 A299 RMK A01 T01440092  RH  071%=      5-min Rain = 0
KDO1 221003Z 35011KT 14/09 A299 RMK A01 T01440092  RH  071%=      5-min Rain = 0
KDO1 221004Z 36013KT 14/09 A299 RMK A01 T01440092  RH  071%=      5-min Rain = 0
KDO1 221005Z 36011KT 14/09 A299 RMK A01 T01440092  RH  071%=      5-min Rain = 0
KDO1 221006Z 35011G16KT 14/09 A299 RMK A01 T01440092  RH  071%=      5-min Rain = 0
KDO1 221007Z 36013KT 14/09 A299 RMK A01 T01440093  RH  071%=      5-min Rain = 0
KDO1 221008Z 36012KT 14/09 A299 RMK A01 T01430093  RH  071%=      5-min Rain = 0
KDO1 221009Z 35012KT 14/09 A299 RMK A01 T01430093  RH  072%=      5-min Rain = 0
KDO1 221010Z 36013KT 14/09 A299 RMK A01 T01430093  RH  072%=      5-min Rain = 0
KDO1 221011Z 35012KT 14/09 A299 RMK A01 T01430093  RH  072%=      5-min Rain = 0
KDO1 221012Z 35011KT 14/09 A299 RMK A01 T01430093  RH  072%=      5-min Rain = 0
KDO1 221013Z 00013KT 14/09 A299 RMK A01 T01430093  RH  072%=      5-min Rain = 0
KDO1 221014Z 36011KT 14/09 A299 RMK A01 T01430093  RH  072%=      5-min Rain = 0
KDO1 221015Z 00011G16KT 14/09 A299 RMK A01 T01420093  RH  072%=      5-min Rain = 0
KDO1 221016Z 00012KT 14/09 A2991 RMK A01 T01430094  RH  072%=      5-min Rain = 0
KDO1 221017Z 00010KT 14/09 A2991 RMK A01 T01420093  RH  072%=      5-min Rain = 0
KDO1 221018Z 00012KT 14/09 A2991 RMK A01 T01430094  RH  072%=      5-min Rain = 0
KDO1 221019Z 00011KT 14/09 A2991 RMK A01 T01420094  RH  073%=      5-min Rain = 0
KDO1 221020Z 00012G17KT 14/09 A2991 RMK A01 T01420094  RH  073%=      5-min Rain = 0
KDO1 221021Z 01010KT 14/09 A2991 RMK A01 T01420094  RH  073%=      5-min Rain = 0
KDO1 221022Z 00012G17KT 14/09 A2991 RMK A01 T01420094  RH  073%=      5-min Rain = 0
KDO1 221023Z 00011KT 14/09 A2991 RMK A01 T01420094  RH  073%=      5-min Rain = 0
KDO1 221024Z 36012KT 14/09 A2991 RMK A01 T01420094  RH  073%=      5-min Rain = 0
KDO1 221025Z 00011KT 14/09 A2991 RMK A01 T01420094  RH  073%=      5-min Rain = 0
KDO1 221026Z 36011KT 14/09 A2991 RMK A01 T01420094  RH  073%=      5-min Rain = 0
KDO1 221027Z 36010G16KT 14/09 A2991 RMK A01 T01420094  RH  073%=      5-min Rain = 0
KDO1 221028Z 36012KT 14/09 A2991 RMK A01 T01420094  RH  073%=      5-min Rain = 0
KDO1 221029Z 35013G19KT 14/09 A2991 RMK A01 T01420094  RH  073%=      5-min Rain = 0
KDO1 221030Z 35014KT 14/09 A2991 RMK A01 T01420094  RH  073%=      5-min Rain = 0
KDO1 221031Z 36012G17KT 14/09 A2991 RMK A01 T01430094  RH  072%=      5-min Rain = 0
KDO1 221032Z 35013KT 14/09 A2991 RMK A01 T01420094  RH  072%=      5-min Rain = 0
KDO1 221033Z 36012KT 14/09 A2991 RMK A01 T01420094  RH  073%=      5-min Rain = 0
KDO1 221034Z 35011KT 14/09 A2991 RMK A01 T01410094  RH  073%=      5-min Rain = 0
KDO1 221035Z 36012KT 14/09 A2991 RMK A01 T01410094  RH  073%=      5-min Rain = 0
KDO1 221036Z 35012KT 14/09 A2991 RMK A01 T01410094  RH  073%=      5-min Rain = 0
KDO1 221037Z 35013KT 14/09 A2991 RMK A01 T01410094  RH  073%=      5-min Rain = 0
KDO1 221038Z 36013G18KT 14/09 A2991 RMK A01 T01410094  RH  073%=      5-min Rain = 0
KDO1 221039Z 36013KT 14/09 A2991 RMK A01 T01400094  RH  073%=      5-min Rain = 0
KDO1 221040Z 35011KT 14/09 A2991 RMK A01 T01410094  RH  073%=      5-min Rain = 0
KDO1 221041Z 36011KT 14/09 A2991 RMK A01 T01400094  RH  074%=      5-min Rain = 0
KDO1 221042Z 36012KT 14/09 A2991 RMK A01 T01400094  RH  074%=      5-min Rain = 0
KDO1 221043Z 36012KT 14/09 A2991 RMK A01 T01400094  RH  074%=      5-min Rain = 0
KDO1 221044Z 36013KT 14/09 A2991 RMK A01 T01390094  RH  074%=      5-min Rain = 0
KDO1 221045Z 36013KT 14/09 A2991 RMK A01 T01390094  RH  074%=      5-min Rain = 0
KDO1 221046Z 36011KT 14/09 A2991 RMK A01 T01400094  RH  074%=      5-min Rain = 0
KDO1 221047Z 00012G17KT 14/09 A2992 RMK A01 T01390094  RH  074%=      5-min Rain = 0
KDO1 221048Z 35013KT 14/09 A2992 RMK A01 T01400094  RH  074%=      5-min Rain = 0
KDO1 221049Z 00012KT 14/09 A2992 RMK A01 T01400094  RH  074%=      5-min Rain = 0
KDO1 221050Z 00012G17KT 14/09 A2992 RMK A01 T01390094  RH  074%=      5-min Rain = 0
KDO1 221051Z 36013KT 14/09 A2992 RMK A01 T01390093  RH  074%=      5-min Rain = 0
KDO1 221052Z 35011G16KT 14/09 A2992 RMK A01 T01390093  RH  074%=      5-min Rain = 0
KDO1 221053Z 35012G18KT 14/09 A2992 RMK A01 T01390093  RH  074%=      5-min Rain = 0
KDO1 221054Z 36010G15KT 14/09 A2992 RMK A01 T01400094  RH  074%=      5-min Rain = 0
KDO1 221055Z 00011KT 14/09 A2992 RMK A01 T01390094  RH  074%=      5-min Rain = 0
KDO1 221056Z 36011KT 14/09 A2992 RMK A01 T01390094  RH  074%=      5-min Rain = 0
KDO1 221057Z 00012G17KT 14/09 A2993 RMK A01 T01380093  RH  074%=      5-min Rain = 0
KDO1 221058Z 01010G15KT 14/09 A2993 RMK A01 T01380093  RH  074%=      5-min Rain = 0
KDO1 221059Z 00011KT 14/09 A2993 RMK A01 T01380093  RH  074%=      5-min Rain = 0
KDO1 221100Z 00011G16KT 14/09 A2993 RMK A01 T01380093  RH  074%=      5-min Rain = 0
KDO1 221101Z 00013KT 14/09 A2993 RMK A01 T01380093  RH  074%=      5-min Rain = 0
KDO1 221102Z 01010KT 14/09 A2993 RMK A01 T01390092  RH  074%=      5-min Rain = 0
KDO1 221103Z 00012KT 14/09 A2993 RMK A01 T01390093  RH  074%=      5-min Rain = 0
KDO1 221104Z 00012KT 14/09 A2993 RMK A01 T01390093  RH  074%=      5-min Rain = 0
KDO1 221105Z 01011KT 14/09 A2993 RMK A01 T01380093  RH  074%=      5-min Rain = 0
KDO1 221106Z 00010G16KT 14/09 A2993 RMK A01 T01380093  RH  074%=      5-min Rain = 0
KDO1 221107Z 01010G15KT 14/09 A2993 RMK A01 T01380093  RH  074%=      5-min Rain = 0
KDO1 221108Z 01010KT 14/09 A2993 RMK A01 T01380093  RH  074%=      5-min Rain = 0
KDO1 221109Z 00011KT 14/09 A2993 RMK A01 T01370093  RH  074%=      5-min Rain = 0
KDO1 221110Z 00011KT 14/09 A2993 RMK A01 T01370093  RH  074%=      5-min Rain = 0
KDO1 221111Z 00012KT 14/09 A2993 RMK A01 T01370093  RH  074%=      5-min Rain = 0
KDO1 221112Z 01010KT 14/09 A2993 RMK A01 T01370093  RH  074%=      5-min Rain = 0
KDO1 221113Z 00012KT 14/09 A2993 RMK A01 T01370093  RH  074%=      5-min Rain = 0
KDO1 221114Z 00011KT 14/09 A2993 RMK A01 T01370092  RH  075%=      5-min Rain = 0
KDO1 221115Z 36012KT 14/09 A2993 RMK A01 T01370092  RH  075%=      5-min Rain = 0
KDO1 221116Z 00011KT 14/09 A2993 RMK A01 T01370092  RH  075%=      5-min Rain = 0
KDO1 221117Z 35010KT 14/09 A2993 RMK A01 T01370092  RH  075%=      5-min Rain = 0
KDO1 221118Z 36012KT 14/09 A2993 RMK A01 T01360092  RH  075%=      5-min Rain = 0
KDO1 221119Z 36013KT 14/09 A2993 RMK A01 T01360092  RH  075%=      5-min Rain = 0
KDO1 221120Z 36013G18KT 14/09 A2993 RMK A01 T01360093  RH  075%=      5-min Rain = 0
KDO1 221121Z 36011KT 14/09 A2993 RMK A01 T01360093  RH  075%=      5-min Rain = 0
KDO1 221122Z 35011KT 14/09 A2993 RMK A01 T01360093  RH  075%=      5-min Rain = 0
KDO1 221123Z 00013G18KT 14/09 A2993 RMK A01 T01350092  RH  075%=      5-min Rain = 0
KDO1 221124Z 36013KT 14/09 A2993 RMK A01 T01350092  RH  075%=      5-min Rain = 0
KDO1 221125Z 35012KT 14/09 A2993 RMK A01 T01350092  RH  075%=      5-min Rain = 0
KDO1 221126Z 35012KT 14/09 A2993 RMK A01 T01360092  RH  075%=      5-min Rain = 0
KDO1 221127Z 36014KT 14/09 A2993 RMK A01 T01360092  RH  075%=      5-min Rain = 0
KDO1 221128Z 36013KT 14/09 A2994 RMK A01 T01360092  RH  075%=      5-min Rain = 0
KDO1 221129Z 35011KT 14/09 A2994 RMK A01 T01360092  RH  075%=      5-min Rain = 0
KDO1 221130Z 36012KT 14/09 A2994 RMK A01 T01350092  RH  075%=      5-min Rain = 0
KDO1 221131Z 36012KT 14/09 A2994 RMK A01 T01350092  RH  075%=      5-min Rain = 0
KDO1 221132Z 00013KT 14/09 A2994 RMK A01 T01350091  RH  075%=      5-min Rain = 0
KDO1 221133Z 36013KT 14/09 A2994 RMK A01 T01350091  RH  075%=      5-min Rain = 0
KDO1 221134Z 36012KT 14/09 A2994 RMK A01 T01360092  RH  075%=      5-min Rain = 0
KDO1 221135Z 36011KT 14/09 A2994 RMK A01 T01350092  RH  075%=      5-min Rain = 0
KDO1 221136Z 36010G15KT 14/09 A2994 RMK A01 T01350092  RH  075%=      5-min Rain = 0
KDO1 221137Z 35012KT 13/09 A2994 RMK A01 T01340092  RH  075%=      5-min Rain = 0
KDO1 221138Z 36014KT 13/09 A2994 RMK A01 T01340092  RH  076%=      5-min Rain = 0
KDO1 221139Z 36014KT 13/09 A2994 RMK A01 T01340092  RH  076%=      5-min Rain = 0
KDO1 221140Z 36011KT 13/09 A2994 RMK A01 T01340092  RH  075%=      5-min Rain = 0
KDO1 221141Z 35011KT 13/09 A2994 RMK A01 T01340092  RH  076%=      5-min Rain = 0
KDO1 221142Z 00013G18KT 13/09 A2994 RMK A01 T01340092  RH  076%=      5-min Rain = 0
KDO1 221143Z 00012G17KT 13/09 A2994 RMK A01 T01340092  RH  076%=      5-min Rain = 0
KDO1 221144Z 36012G17KT 13/09 A2994 RMK A01 T01340092  RH  076%=      5-min Rain = 0
KDO1 221145Z 35015KT 13/09 A2994 RMK A01 T01340092  RH  076%=      5-min Rain = 0
KDO1 221146Z 35012KT 13/09 A2994 RMK A01 T01340092  RH  076%=      5-min Rain = 0
KDO1 221147Z 36013G19KT 13/09 A2994 RMK A01 T01340092  RH  076%=      5-min Rain = 0
KDO1 221148Z 36014KT 13/09 A2994 RMK A01 T01340092  RH  076%=      5-min Rain = 0
KDO1 221149Z 36012G19KT 13/09 A2994 RMK A01 T01340092  RH  076%=      5-min Rain = 0
KDO1 221150Z 00015KT 13/09 A2994 RMK A01 T01340092  RH  076%=      5-min Rain = 0
KDO1 221151Z 35013KT 13/09 A2994 RMK A01 T01340092  RH  076%=      5-min Rain = 0
KDO1 221152Z 36011G17KT 13/09 A2994 RMK A01 T01340092  RH  076%=      5-min Rain = 0
KDO1 221153Z 36013KT 13/09 A2994 RMK A01 T01340093  RH  076%=      5-min Rain = 0
KDO1 221154Z 35015KT 13/09 A2994 RMK A01 T01340093  RH  076%=      5-min Rain = 0
KDO1 221155Z 35016KT 13/09 A2994 RMK A01 T01340093  RH  076%=      5-min Rain = 0
KDO1 221156Z 36013G19KT 13/09 A2994 RMK A01 T01340092  RH  076%=      5-min Rain = 0
KDO1 221157Z 35015G20KT 13/09 A2994 RMK A01 T01340092  RH  076%=      5-min Rain = 0
KDO1 221158Z 36014G19KT 14/09 A2994 RMK A01 T01350093  RH  076%=      5-min Rain = 0
KDO1 221159Z 35013KT 13/09 A2995 RMK A01 T01340093  RH  076%=      5-min Rain = 0
KDO1 221200Z 35014KT 13/09 A2995 RMK A01 T01340093  RH  076%=      5-min Rain = 0
KDO1 221201Z 36013KT 13/09 A2995 RMK A01 T01340093  RH  076%=      5-min Rain = 0
KDO1 221202Z 35014KT 13/09 A2995 RMK A01 T01340093  RH  076%=      5-min Rain = 0
KDO1 221203Z 35011KT 13/09 A2995 RMK A01 T01340093  RH  076%=      5-min Rain = 0
KDO1 221204Z 35013KT 13/09 A2995 RMK A01 T01330093  RH  076%=      5-min Rain = 0
KDO1 221205Z 35013KT 13/09 A2995 RMK A01 T01330093  RH  077%=      5-min Rain = 0
KDO1 221206Z 36013G18KT 13/09 A2995 RMK A01 T01330093  RH  076%=      5-min Rain = 0
KDO1 221207Z 36014G19KT 13/09 A2995 RMK A01 T01330093  RH  076%=      5-min Rain = 0
KDO1 221208Z 35014KT 13/09 A2995 RMK A01 T01340093  RH  076%=      5-min Rain = 0
KDO1 221209Z 35011KT 13/09 A2996 RMK A01 T01340093  RH  077%=      5-min Rain = 0
KDO1 221210Z 36014G21KT 13/09 A2996 RMK A01 T01330093  RH  077%=      5-min Rain = 0
KDO1 221211Z 35013G18KT 13/09 A2996 RMK A01 T01330093  RH  077%=      5-min Rain = 0
KDO1 221212Z 36014G20KT 13/09 A2996 RMK A01 T01330093  RH  076%=      5-min Rain = 0
KDO1 221213Z 35013KT 13/09 A2996 RMK A01 T01330093  RH  077%=      5-min Rain = 0
KDO1 221214Z 36015KT 13/09 A2996 RMK A01 T01330093  RH  077%=      5-min Rain = 0
KDO1 221215Z 00014KT 13/09 A2996 RMK A01 T01330093  RH  077%=      5-min Rain = 0
KDO1 221216Z 35014G21KT 13/09 A2996 RMK A01 T01330093  RH  077%=      5-min Rain = 0
KDO1 221217Z 35015KT 13/09 A2996 RMK A01 T01330094  RH  077%=      5-min Rain = 0
KDO1 221218Z 36015G20KT 13/09 A2996 RMK A01 T01340094  RH  077%=      5-min Rain = 0
KDO1 221219Z 35014KT 13/09 A2996 RMK A01 T01330093  RH  077%=      5-min Rain = 0
KDO1 221220Z 36012G18KT 13/09 A2996 RMK A01 T01340094  RH  077%=      5-min Rain = 0
KDO1 221221Z 36014KT 13/09 A2996 RMK A01 T01340094  RH  077%=      5-min Rain = 0
KDO1 221222Z 36016KT 13/09 A2996 RMK A01 T01340094  RH  077%=      5-min Rain = 0
KDO1 221223Z 35011KT 13/09 A2997 RMK A01 T01340094  RH  077%=      5-min Rain = 0
KDO1 221224Z 36012G17KT 13/09 A2997 RMK A01 T01340094  RH  077%=      5-min Rain = 0
KDO1 221225Z 35013G18KT 13/10 A2997 RMK A01 T01340095  RH  077%=      5-min Rain = 0
KDO1 221226Z 35015KT 13/10 A2997 RMK A01 T01340095  RH  077%=      5-min Rain = 0
KDO1 221227Z 35015G21KT 13/09 A2997 RMK A01 T01340094  RH  077%=      5-min Rain = 0
KDO1 221228Z 36016KT 13/09 A2997 RMK A01 T01340094  RH  077%=      5-min Rain = 0
KDO1 221229Z 35012KT 14/09 A2997 RMK A01 T01350094  RH  076%=      5-min Rain = 0
KDO1 221230Z 35015KT 14/09 A2997 RMK A01 T01350094  RH  077%=      5-min Rain = 0
KDO1 221231Z 36013G19KT 14/10 A2997 RMK A01 T01350095  RH  077%=      5-min Rain = 0
KDO1 221232Z 35014KT 14/10 A2998 RMK A01 T01350095  RH  077%=      5-min Rain = 0
KDO1 221233Z 36013G20KT 14/10 A2998 RMK A01 T01350095  RH  077%=      5-min Rain = 0
KDO1 221234Z 36013G18KT 14/10 A2998 RMK A01 T01350095  RH  077%=      5-min Rain = 0
KDO1 221235Z 34012G17KT 14/10 A2998 RMK A01 T01350095  RH  077%=      5-min Rain = 0
KDO1 221236Z 35010KT 14/10 A2998 RMK A01 T01350096  RH  077%=      5-min Rain = 0
KDO1 221237Z 36010KT 13/10 A2998 RMK A01 T01340095  RH  077%=      5-min Rain = 0
KDO1 221238Z 36009KT 13/10 A2998 RMK A01 T01340095  RH  077%=      5-min Rain = 0
KDO1 221239Z 36012G18KT 13/10 A2999 RMK A01 T01340096  RH  077%=      5-min Rain = 0
KDO1 221240Z 36014KT 13/10 A2999 RMK A01 T01340095  RH  077%=      5-min Rain = 0
KDO1 221241Z 35010G15KT 13/10 A2999 RMK A01 T01340095  RH  077%=      5-min Rain = 0
KDO1 221242Z 36011KT 13/10 A2999 RMK A01 T01340095  RH  077%=      5-min Rain = 0
KDO1 221243Z 01011G17KT 13/10 A2999 RMK A01 T01340095  RH  077%=      5-min Rain = 0
KDO1 221244Z 36011KT 13/10 A2999 RMK A01 T01340095  RH  077%=      5-min Rain = 0
KDO1 221245Z 35012KT 14/10 A2999 RMK A01 T01350095  RH  077%=      5-min Rain = 0
KDO1 221246Z 36014KT 14/10 A2999 RMK A01 T01350095  RH  077%=      5-min Rain = 0
KDO1 221247Z 36013KT 14/10 A2999 RMK A01 T01350095  RH  077%=      5-min Rain = 0
KDO1 221248Z 36014KT 14/10 A30 RMK A01 T01360095  RH  076%=      5-min Rain = 0
KDO1 221249Z 36013KT 14/10 A30 RMK A01 T01370096  RH  076%=      5-min Rain = 0
KDO1 221250Z 00014KT 14/10 A30 RMK A01 T01370096  RH  076%=      5-min Rain = 0
KDO1 221251Z 01012G17KT 14/10 A30 RMK A01 T01360096  RH  076%=      5-min Rain = 0
KDO1 221252Z 00012KT 14/10 A30 RMK A01 T01370096  RH  076%=      5-min Rain = 0
KDO1 221253Z 00011G20KT 14/10 A30 RMK A01 T01370096  RH  076%=      5-min Rain = 0
KDO1 221254Z 01014G19KT 14/10 A30 RMK A01 T01370096  RH  076%=      5-min Rain = 0
KDO1 221255Z 00015G20KT 14/10 A30 RMK A01 T01370096  RH  076%=      5-min Rain = 0
KDO1 221256Z 36012KT 14/10 A30 RMK A01 T01370096  RH  076%=      5-min Rain = 0
KDO1 221257Z 36013KT 14/10 A30 RMK A01 T01370097  RH  076%=      5-min Rain = 0
KDO1 221258Z 00013KT 14/10 A30 RMK A01 T01370097  RH  077%=      5-min Rain = 0
KDO1 221259Z 36012KT 14/10 A30 RMK A01 T01370097  RH  076%=      5-min Rain = 0
KDO1 221300Z 35014G21KT 14/10 A30 RMK A01 T01370097  RH  077%=      5-min Rain = 0
KDO1 221301Z 35013G18KT 14/10 A30 RMK A01 T01380097  RH  076%=      5-min Rain = 0
KDO1 221302Z 00013KT 14/10 A30 RMK A01 T01380097  RH  076%=      5-min Rain = 0
KDO1 221303Z 00014KT 14/10 A3001 RMK A01 T01380097  RH  076%=      5-min Rain = 0
KDO1 221304Z 00011KT 14/10 A3001 RMK A01 T01380097  RH  076%=      5-min Rain = 0
KDO1 221305Z 36011KT 14/10 A3001 RMK A01 T01390098  RH  076%=      5-min Rain = 0
KDO1 221306Z 35013KT 14/10 A3001 RMK A01 T01390098  RH  076%=      5-min Rain = 0
KDO1 221307Z 00013G19KT 14/10 A3001 RMK A01 T01400097  RH  075%=      5-min Rain = 0
KDO1 221308Z 36014G20KT 14/10 A3001 RMK A01 T01410098  RH  075%=      5-min Rain = 0
KDO1 221309Z 36010KT 14/10 A3001 RMK A01 T01410098  RH  075%=      5-min Rain = 0
KDO1 221310Z 36010KT 14/10 A3001 RMK A01 T01420099  RH  075%=      5-min Rain = 0
KDO1 221311Z 00011G16KT 14/10 A3001 RMK A01 T01430099  RH  075%=      5-min Rain = 0
KDO1 221312Z 00013KT 14/10 A3001 RMK A01 T01430098  RH  074%=      5-min Rain = 0
KDO1 221313Z 00013KT 14/10 A3001 RMK A01 T01430099  RH  074%=      5-min Rain = 0
KDO1 221314Z 01012KT 14/10 A3001 RMK A01 T01430098  RH  074%=      5-min Rain = 0
KDO1 221315Z 01010KT 14/10 A3001 RMK A01 T01430099  RH  075%=      5-min Rain = 0
KDO1 221316Z 00014G19KT 14/10 A3001 RMK A01 T01430099  RH  075%=      5-min Rain = 0
KDO1 221317Z 00013KT 14/10 A3001 RMK A01 T01430099  RH  075%=      5-min Rain = 0
KDO1 221318Z 00016G21KT 14/10 A3001 RMK A01 T01430099  RH  075%=      5-min Rain = 0
KDO1 221319Z 00014G21KT 14/10 A3001 RMK A01 T01440098  RH  074%=      5-min Rain = 0
KDO1 221320Z 00012KT 14/10 A3001 RMK A01 T01440099  RH  074%=      5-min Rain = 0
KDO1 221321Z 01015KT 14/10 A3001 RMK A01 T01440098  RH  074%=      5-min Rain = 0
KDO1 221322Z 00011G16KT 14/10 A3001 RMK A01 T01440099  RH  074%=      5-min Rain = 0
KDO1 221323Z 00012KT 14/10 A3001 RMK A01 T01440099  RH  074%=      5-min Rain = 0
KDO1 221324Z 00013G18KT 14/10 A3001 RMK A01 T01440099  RH  074%=      5-min Rain = 0
KDO1 221325Z 01011KT 14/10 A3001 RMK A01 T01440099  RH  074%=      5-min Rain = 0
KDO1 221326Z 36009KT 14/10 A3001 RMK A01 T01440100  RH  074%=      5-min Rain = 0
KDO1 221327Z 35015G20KT 15/10 A3002 RMK A01 T01450100  RH  074%=      5-min Rain = 0
KDO1 221328Z 00013KT 15/10 A3002 RMK A01 T01450099  RH  074%=      5-min Rain = 0
KDO1 221329Z 00014G19KT 15/10 A3002 RMK A01 T01450099  RH  074%=      5-min Rain = 0
KDO1 221330Z 00014G21KT 15/10 A3002 RMK A01 T01450099  RH  074%=      5-min Rain = 0
KDO1 221331Z 01016KT 15/10 A3002 RMK A01 T01450099  RH  074%=      5-min Rain = 0
KDO1 221332Z 01017G22KT 15/10 A3002 RMK A01 T01450098  RH  073%=      5-min Rain = 0
KDO1 221333Z 00014G20KT 15/10 A3002 RMK A01 T01460099  RH  074%=      5-min Rain = 0
KDO1 221334Z 36016KT 15/10 A3002 RMK A01 T01460099  RH  073%=      5-min Rain = 0
KDO1 221335Z 00014G20KT 15/10 A3002 RMK A01 T01470099  RH  073%=      5-min Rain = 0
KDO1 221336Z 00011G17KT 15/10 A3002 RMK A01 T01470100  RH  073%=      5-min Rain = 0
KDO1 221337Z 00013G20KT 15/10 A3002 RMK A01 T01480101  RH  073%=      5-min Rain = 0
KDO1 221338Z 36015G20KT 15/10 A3002 RMK A01 T01480100  RH  073%=      5-min Rain = 0
KDO1 221339Z 00013KT 15/10 A3002 RMK A01 T01490100  RH  073%=      5-min Rain = 0
KDO1 221340Z 36016G21KT 15/10 A3002 RMK A01 T01490100  RH  072%=      5-min Rain = 0
KDO1 221341Z 01017KT 15/10 A3002 RMK A01 T01500100  RH  072%=      5-min Rain = 0
KDO1 221342Z 01013G18KT 15/10 A3002 RMK A01 T01500100  RH  072%=      5-min Rain = 0
KDO1 221343Z 01012KT 15/10 A3002 RMK A01 T01500101  RH  072%=      5-min Rain = 0
KDO1 221344Z 36011KT 15/10 A3002 RMK A01 T01500101  RH  072%=      5-min Rain = 0
KDO1 221345Z 00016KT 15/10 A3002 RMK A01 T01500101  RH  072%=      5-min Rain = 0
KDO1 221346Z 00014G19KT 15/10 A3002 RMK A01 T01500100  RH  072%=      5-min Rain = 0
KDO1 221347Z 00013G19KT 15/10 A3002 RMK A01 T01500101  RH  072%=      5-min Rain = 0
KDO1 221348Z 01012G18KT 15/10 A3002 RMK A01 T01510101  RH  072%=      5-min Rain = 0
KDO1 221349Z 35013KT 15/10 A3002 RMK A01 T01520102  RH  072%=      5-min Rain = 0
KDO1 221350Z 35012G17KT 15/10 A3002 RMK A01 T01520103  RH  072%=      5-min Rain = 0
KDO1 221351Z 00015G21KT 15/10 A3002 RMK A01 T01530102  RH  072%=      5-min Rain = 0
KDO1 221352Z 01014G20KT 15/10 A3002 RMK A01 T01530101  RH  071%=      5-min Rain = 0
KDO1 221353Z 01014G19KT 15/10 A3002 RMK A01 T01520102  RH  072%=      5-min Rain = 0
KDO1 221354Z 01013KT 15/10 A3002 RMK A01 T01520102  RH  072%=      5-min Rain = 0
KDO1 221355Z 00014G20KT 15/10 A3001 RMK A01 T01520103  RH  072%=      5-min Rain = 0
KDO1 221356Z 01016KT 15/10 A3001 RMK A01 T01520101  RH  072%=      5-min Rain = 0
KDO1 221357Z 01018KT 15/10 A3001 RMK A01 T01520101  RH  072%=      5-min Rain = 0
KDO1 221358Z 01019KT 15/10 A3002 RMK A01 T01520101  RH  072%=      5-min Rain = 0
KDO1 221359Z 01016KT 15/10 A3001 RMK A01 T01520101  RH  072%=      5-min Rain = 0
KDO1 221400Z 01015G21KT 15/10 A3002 RMK A01 T01520101  RH  072%=      5-min Rain = 0
KDO1 221401Z 01013G19KT 15/10 A3002 RMK A01 T01530102  RH  072%=      5-min Rain = 0
KDO1 221402Z 01013G21KT 15/10 A3002 RMK A01 T01540103  RH  072%=      5-min Rain = 0
KDO1 221403Z 36017G22KT 16/10 A3002 RMK A01 T01550103  RH  071%=      5-min Rain = 0
KDO1 221404Z 01020KT 16/10 A3002 RMK A01 T01560102  RH  070%=      5-min Rain = 0
KDO1 221405Z 01020KT 16/10 A3002 RMK A01 T01560101  RH  070%=      5-min Rain = 0
KDO1 221406Z 01017G22KT 16/10 A3002 RMK A01 T01560101  RH  070%=      5-min Rain = 0
KDO1 221407Z 01015G21KT 16/10 A3002 RMK A01 T01560102  RH  070%=      5-min Rain = 0
KDO1 221408Z 00012G17KT 16/10 A3002 RMK A01 T01570103  RH  070%=      5-min Rain = 0
KDO1 221409Z 00015G21KT 16/10 A3002 RMK A01 T01580104  RH  070%=      5-min Rain = 0
KDO1 221410Z 01015KT 16/10 A3002 RMK A01 T01580102  RH  070%=      5-min Rain = 0
KDO1 221411Z 00012KT 16/10 A3002 RMK A01 T01560103  RH  070%=      5-min Rain = 0
KDO1 221412Z 01013G20KT 16/10 A3002 RMK A01 T01560104  RH  071%=      5-min Rain = 0
KDO1 221413Z 01016G21KT 16/10 A3002 RMK A01 T01560103  RH  070%=      5-min Rain = 0
KDO1 221414Z 01015KT 16/10 A3002 RMK A01 T01560102  RH  070%=      5-min Rain = 0
KDO1 221415Z 02016G21KT 16/10 A3002 RMK A01 T01560102  RH  070%=      5-min Rain = 0
KDO1 221416Z 01015KT 16/10 A3002 RMK A01 T01560102  RH  070%=      5-min Rain = 0
KDO1 221417Z 02014G19KT 16/10 A3002 RMK A01 T01560101  RH  070%=      5-min Rain = 0
KDO1 221418Z 01010KT 16/10 A3003 RMK A01 T01560103  RH  070%=      5-min Rain = 0
KDO1 221419Z 01012G17KT 16/10 A3003 RMK A01 T01590104  RH  070%=      5-min Rain = 0
KDO1 221420Z 01010KT 16/11 A3003 RMK A01 T01590105  RH  070%=      5-min Rain = 0
KDO1 221421Z 01012KT 16/10 A3003 RMK A01 T01600104  RH  069%=      5-min Rain = 0
KDO1 221422Z 01014G19KT 16/10 A3004 RMK A01 T01590104  RH  070%=      5-min Rain = 0
KDO1 221423Z 01014KT 16/10 A3004 RMK A01 T01590103  RH  069%=      5-min Rain = 0
KDO1 221424Z 01013KT 16/10 A3004 RMK A01 T01580102  RH  069%=      5-min Rain = 0
KDO1 221425Z 00014G19KT 16/10 A3004 RMK A01 T01580103  RH  070%=      5-min Rain = 0
KDO1 221426Z 00014KT 16/10 A3004 RMK A01 T01580103  RH  070%=      5-min Rain = 0
KDO1 221427Z 00015KT 16/10 A3004 RMK A01 T01580103  RH  070%=      5-min Rain = 0
KDO1 221428Z 36015G20KT 16/10 A3004 RMK A01 T01580103  RH  070%=      5-min Rain = 0
KDO1 221429Z 00014G21KT 16/10 A3004 RMK A01 T01590103  RH  069%=      5-min Rain = 0
KDO1 221430Z 36014KT 16/10 A3004 RMK A01 T01600104  RH  069%=      5-min Rain = 0
KDO1 221431Z 00013KT 16/10 A3004 RMK A01 T01610104  RH  069%=      5-min Rain = 0
KDO1 221432Z 36015KT 16/11 A3004 RMK A01 T01620105  RH  069%=      5-min Rain = 0
KDO1 221433Z 00011KT 16/10 A3004 RMK A01 T01620104  RH  068%=      5-min Rain = 0
KDO1 221434Z 01008KT 16/11 A3004 RMK A01 T01620105  RH  069%=      5-min Rain = 0
KDO1 221435Z 00010KT 16/11 A3004 RMK A01 T01620105  RH  069%=      5-min Rain = 0
KDO1 221436Z 01013KT 16/10 A3004 RMK A01 T01620104  RH  069%=      5-min Rain = 0
KDO1 221437Z 01009KT 16/10 A3004 RMK A01 T01620104  RH  069%=      5-min Rain = 0
KDO1 221438Z 00011G17KT 16/11 A3004 RMK A01 T01610105  RH  069%=      5-min Rain = 0
KDO1 221439Z 00011G16KT 16/10 A3004 RMK A01 T01610104  RH  069%=      5-min Rain = 0
KDO1 221440Z 36012G17KT 16/11 A3004 RMK A01 T01610105  RH  069%=      5-min Rain = 0
KDO1 221441Z 35014KT 16/10 A3005 RMK A01 T01610104  RH  069%=      5-min Rain = 0
KDO1 221442Z 35014KT 16/10 A3005 RMK A01 T01610104  RH  069%=      5-min Rain = 0
KDO1 221443Z 35013KT 16/10 A3005 RMK A01 T01610104  RH  069%=      5-min Rain = 0
KDO1 221444Z 35010G16KT 16/10 A3005 RMK A01 T01620104  RH  069%=      5-min Rain = 0
KDO1 221445Z 35014KT 16/11 A3005 RMK A01 T01640106  RH  068%=      5-min Rain = 0
KDO1 221446Z 36013G18KT 17/11 A3005 RMK A01 T01650105  RH  068%=      5-min Rain = 0
KDO1 221447Z 35011KT 17/11 A3005 RMK A01 T01660107  RH  068%=      5-min Rain = 0
KDO1 221448Z 36013KT 17/11 A3005 RMK A01 T01680107  RH  067%=      5-min Rain = 0
KDO1 221449Z 00013KT 17/11 A3005 RMK A01 T01680106  RH  067%=      5-min Rain = 0
KDO1 221450Z 00014KT 17/11 A3005 RMK A01 T01680106  RH  067%=      5-min Rain = 0
KDO1 221451Z 35016KT 17/11 A3005 RMK A01 T01660105  RH  067%=      5-min Rain = 0
KDO1 221452Z 36015KT 16/10 A3005 RMK A01 T01640104  RH  067%=      5-min Rain = 0
KDO1 221453Z 01013KT 16/11 A3005 RMK A01 T01630105  RH  068%=      5-min Rain = 0
KDO1 221454Z 01011KT 16/11 A3005 RMK A01 T01630105  RH  068%=      5-min Rain = 0
KDO1 221455Z 00010KT 16/11 A3005 RMK A01 T01630106  RH  069%=      5-min Rain = 0
KDO1 221456Z 00012G19KT 17/11 A3005 RMK A01 T01650106  RH  068%=      5-min Rain = 0
KDO1 221457Z 00013KT 17/11 A3005 RMK A01 T01670106  RH  068%=      5-min Rain = 0
KDO1 221458Z 00012KT 17/11 A3005 RMK A01 T01680106  RH  067%=      5-min Rain = 0
KDO1 221459Z 00014KT 17/11 A3005 RMK A01 T01680106  RH  067%=      5-min Rain = 0
KDO1 221500Z 01013G20KT 17/11 A3005 RMK A01 T01680106  RH  067%=      5-min Rain = 0
KDO1 221501Z 36013KT 17/11 A3005 RMK A01 T01670106  RH  067%=      5-min Rain = 0
KDO1 221502Z 01012KT 17/11 A3005 RMK A01 T01670106  RH  067%=      5-min Rain = 0
KDO1 221503Z 01012KT 17/11 A3005 RMK A01 T01670106  RH  067%=      5-min Rain = 0
KDO1 221504Z 01012KT 17/11 A3005 RMK A01 T01670106  RH  067%=      5-min Rain = 0
KDO1 221505Z 00015KT 17/11 A3005 RMK A01 T01670106  RH  067%=      5-min Rain = 0
KDO1 221506Z 36012KT 17/11 A3005 RMK A01 T01670107  RH  067%=      5-min Rain = 0
KDO1 221507Z 01012KT 17/11 A3005 RMK A01 T01670107  RH  068%=      5-min Rain = 0
KDO1 221508Z 00013G18KT 17/11 A3006 RMK A01 T01670106  RH  067%=      5-min Rain = 0
KDO1 221509Z 01013KT 17/11 A3006 RMK A01 T01660105  RH  067%=      5-min Rain = 0
KDO1 221510Z 36013KT 17/11 A3006 RMK A01 T01650105  RH  067%=      5-min Rain = 0
KDO1 221511Z 36013G18KT 17/11 A3006 RMK A01 T01650105  RH  068%=      5-min Rain = 0
KDO1 221512Z 36012G17KT 17/11 A3006 RMK A01 T01650106  RH  068%=      5-min Rain = 0
KDO1 221513Z 01011KT 17/11 A3006 RMK A01 T01660106  RH  068%=      5-min Rain = 0
KDO1 221514Z 00013KT 17/11 A3005 RMK A01 T01660105  RH  067%=      5-min Rain = 0
KDO1 221515Z 00013KT 17/11 A3006 RMK A01 T01670106  RH  067%=      5-min Rain = 0
KDO1 221516Z 01013KT 17/11 A3006 RMK A01 T01680105  RH  066%=      5-min Rain = 0
KDO1 221517Z 00013G20KT 17/11 A3005 RMK A01 T01690105  RH  066%=      5-min Rain = 0
KDO1 221518Z 01017KT 17/11 A3006 RMK A01 T01700106  RH  066%=      5-min Rain = 0
KDO1 221519Z 01014KT 17/11 A3006 RMK A01 T01700105  RH  066%=      5-min Rain = 0
KDO1 221520Z 01015KT 17/11 A3006 RMK A01 T01700107  RH  066%=      5-min Rain = 0
KDO1 221521Z 01015KT 17/11 A3006 RMK A01 T01700105  RH  066%=      5-min Rain = 0
KDO1 221522Z 02015KT 17/11 A3006 RMK A01 T01700106  RH  066%=      5-min Rain = 0
KDO1 221523Z 01014G19KT 17/11 A3005 RMK A01 T01690106  RH  066%=      5-min Rain = 0
KDO1 221524Z 01015G20KT 17/11 A3005 RMK A01 T01690105  RH  066%=      5-min Rain = 0
KDO1 221525Z 01011KT 17/11 A3005 RMK A01 T01680106  RH  067%=      5-min Rain = 0
KDO1 221526Z 00010KT 17/11 A3005 RMK A01 T01690108  RH  067%=      5-min Rain = 0
KDO1 221527Z 01014G20KT 17/11 A3005 RMK A01 T01710108  RH  067%=      5-min Rain = 0
KDO1 221528Z 00012G21KT 17/11 A3005 RMK A01 T01720107  RH  066%=      5-min Rain = 0
KDO1 221529Z 36013G18KT 17/11 A3005 RMK A01 T01720107  RH  066%=      5-min Rain = 0
KDO1 221530Z 00012G17KT 17/11 A3005 RMK A01 T01720108  RH  066%=      5-min Rain = 0
KDO1 221531Z 00012G19KT 17/11 A3005 RMK A01 T01720107  RH  066%=      5-min Rain = 0
KDO1 221532Z 36013KT 17/11 A3005 RMK A01 T01720108  RH  066%=      5-min Rain = 0
KDO1 221533Z 01011KT 17/11 A3005 RMK A01 T01730109  RH  066%=      5-min Rain = 0
KDO1 221534Z 01010KT 17/11 A3005 RMK A01 T01740108  RH  065%=      5-min Rain = 0
KDO1 221535Z 00012G17KT 17/11 A3005 RMK A01 T01740108  RH  065%=      5-min Rain = 0
KDO1 221536Z 36014G19KT 17/11 A3005 RMK A01 T01740108  RH  065%=      5-min Rain = 0
KDO1 221537Z 00013KT 18/11 A3005 RMK A01 T01750108  RH  065%=      5-min Rain = 0
KDO1 221538Z 01017G22KT 18/11 A3005 RMK A01 T01750107  RH  064%=      5-min Rain = 0
KDO1 221539Z 00013KT 17/11 A3005 RMK A01 T01740106  RH  064%=      5-min Rain = 0
KDO1 221540Z 00013KT 17/11 A3005 RMK A01 T01740108  RH  065%=      5-min Rain = 0
KDO1 221541Z 36012G17KT 18/11 A3005 RMK A01 T01750110  RH  066%=      5-min Rain = 0
KDO1 221542Z 01013G20KT 18/11 A3005 RMK A01 T01760109  RH  065%=      5-min Rain = 0
KDO1 221543Z 01015KT 18/11 A3005 RMK A01 T01770109  RH  064%=      5-min Rain = 0
KDO1 221544Z 00013G19KT 18/11 A3005 RMK A01 T01760109  RH  065%=      5-min Rain = 0
KDO1 221545Z 01014KT 18/11 A3005 RMK A01 T01750108  RH  065%=      5-min Rain = 0
KDO1 221546Z 00016G21KT 17/11 A3005 RMK A01 T01740107  RH  065%=      5-min Rain = 0
KDO1 221547Z 00017KT 17/11 A3005 RMK A01 T01730106  RH  065%=      5-min Rain = 0
KDO1 221548Z 01015KT 17/11 A3005 RMK A01 T01720106  RH  065%=      5-min Rain = 0
KDO1 221549Z 00013KT 17/11 A3005 RMK A01 T01720107  RH  066%=      5-min Rain = 0
KDO1 221550Z 36014G19KT 17/11 A3005 RMK A01 T01730109  RH  066%=      5-min Rain = 0
KDO1 221551Z 36013G20KT 17/11 A3005 RMK A01 T01740109  RH  065%=      5-min Rain = 0
KDO1 221552Z 00015KT 18/11 A3005 RMK A01 T01750107  RH  064%=      5-min Rain = 0
KDO1 221553Z 00010KT 18/11 A3005 RMK A01 T01750109  RH  065%=      5-min Rain = 0
KDO1 221554Z 01013KT 18/11 A3005 RMK A01 T01770111  RH  065%=      5-min Rain = 0
KDO1 221555Z 01011KT 18/11 A3005 RMK A01 T01780110  RH  064%=      5-min Rain = 0
KDO1 221556Z 00012KT 18/11 A3005 RMK A01 T01780110  RH  064%=      5-min Rain = 0
KDO1 221557Z 00015KT 18/11 A3005 RMK A01 T01790109  RH  064%=      5-min Rain = 0
KDO1 221558Z 35011G19KT 18/11 A3005 RMK A01 T01780109  RH  064%=      5-min Rain = 0
KDO1 221559Z 35017KT 18/11 A3005 RMK A01 T01780109  RH  064%=      5-min Rain = 0
KDO1 221600Z 02012G17KT 18/11 A3005 RMK A01 T01780110  RH  064%=      5-min Rain = 0
KDO1 221601Z 01014G19KT 18/11 A3005 RMK A01 T01780108  RH  064%=      5-min Rain = 0
KDO1 221602Z 00013KT 18/11 A3005 RMK A01 T01770108  RH  064%=      5-min Rain = 0
KDO1 221603Z 00015KT 18/11 A3005 RMK A01 T01760108  RH  064%=      5-min Rain = 0
KDO1 221604Z 00016KT 18/11 A3004 RMK A01 T01760108  RH  064%=      5-min Rain = 0
KDO1 221605Z 00019KT 18/11 A3004 RMK A01 T01750108  RH  064%=      5-min Rain = 0
KDO1 221606Z 01017G23KT 18/11 A3004 RMK A01 T01750107  RH  064%=      5-min Rain = 0
KDO1 221607Z 00017G22KT 18/11 A3004 RMK A01 T01750107  RH  064%=      5-min Rain = 0
KDO1 221608Z 00015G20KT 17/11 A3004 RMK A01 T01740108  RH  065%=      5-min Rain = 0
KDO1 221609Z 01013KT 18/11 A3004 RMK A01 T01750108  RH  065%=      5-min Rain = 0
KDO1 221610Z 02011G16KT 18/11 A3004 RMK A01 T01760109  RH  065%=      5-min Rain = 0
KDO1 221611Z 02014KT 18/11 A3004 RMK A01 T01770109  RH  064%=      5-min Rain = 0
KDO1 221612Z 01013G20KT 18/11 A3005 RMK A01 T01770109  RH  064%=      5-min Rain = 0
KDO1 221613Z 01015KT 18/11 A3005 RMK A01 T01770107  RH  064%=      5-min Rain = 0
KDO1 221614Z 01014KT 18/11 A3005 RMK A01 T01760108  RH  064%=      5-min Rain = 0
KDO1 221615Z 01015KT 18/11 A3005 RMK A01 T01760108  RH  064%=      5-min Rain = 0
KDO1 221616Z 01014G20KT 18/11 A3005 RMK A01 T01760109  RH  065%=      5-min Rain = 0
KDO1 221617Z 01016G21KT 18/11 A3005 RMK A01 T01770108  RH  064%=      5-min Rain = 0
KDO1 221618Z 01016G21KT 18/11 A3005 RMK A01 T01770107  RH  064%=      5-min Rain = 0
KDO1 221619Z 01014G20KT 18/11 A3006 RMK A01 T01770107  RH  064%=      5-min Rain = 0
KDO1 221620Z 00014KT 18/11 A3006 RMK A01 T01760108  RH  064%=      5-min Rain = 0
KDO1 221621Z 02014KT 18/11 A3006 RMK A01 T01770108  RH  064%=      5-min Rain = 0
KDO1 221622Z 01013KT 18/11 A3006 RMK A01 T01780108  RH  064%=      5-min Rain = 0
KDO1 221623Z 01015KT 18/11 A3006 RMK A01 T01780108  RH  063%=      5-min Rain = 0
KDO1 221624Z 01016KT 18/11 A3006 RMK A01 T01790107  RH  063%=      5-min Rain = 0
KDO1 221625Z 00014KT 18/11 A3006 RMK A01 T01780107  RH  063%=      5-min Rain = 0
KDO1 221626Z 00014KT 18/11 A3006 RMK A01 T01790110  RH  064%=      5-min Rain = 0
KDO1 221627Z 01014G20KT 18/11 A3006 RMK A01 T01820112  RH  064%=      5-min Rain = 0
KDO1 221628Z 02014KT 18/11 A3006 RMK A01 T01830110  RH  062%=      5-min Rain = 0
KDO1 221629Z 01016KT 18/11 A3006 RMK A01 T01820109  RH  062%=      5-min Rain = 0
KDO1 221630Z 01015KT 18/11 A3006 RMK A01 T01810110  RH  063%=      5-min Rain = 0
KDO1 221631Z 02015G20KT 18/11 A3006 RMK A01 T01810109  RH  063%=      5-min Rain = 0
KDO1 221632Z 02015G20KT 18/11 A3006 RMK A01 T01810109  RH  063%=      5-min Rain = 0
KDO1 221633Z 01012KT 18/11 A3006 RMK A01 T01810109  RH  063%=      5-min Rain = 0
KDO1 221634Z 01014KT 18/11 A3006 RMK A01 T01810109  RH  063%=      5-min Rain = 0
KDO1 221635Z 02013KT 18/11 A3006 RMK A01 T01810109  RH  063%=      5-min Rain = 0
KDO1 221636Z 03013KT 18/11 A3006 RMK A01 T01810111  RH  063%=      5-min Rain = 0
KDO1 221637Z 03015KT 18/11 A3006 RMK A01 T01820109  RH  062%=      5-min Rain = 0
KDO1 221638Z 03011KT 18/11 A3006 RMK A01 T01820110  RH  063%=      5-min Rain = 0
KDO1 221639Z 03013KT 18/11 A3006 RMK A01 T01830111  RH  063%=      5-min Rain = 0
KDO1 221640Z 02013KT 18/11 A3006 RMK A01 T01840112  RH  063%=      5-min Rain = 0
KDO1 221641Z 02013KT 18/11 A3006 RMK A01 T01840112  RH  062%=      5-min Rain = 0
KDO1 221642Z 02014G20KT 19/11 A3006 RMK A01 T01850111  RH  062%=      5-min Rain = 0
KDO1 221643Z 03014G21KT 19/11 A3006 RMK A01 T01850111  RH  062%=      5-min Rain = 0
KDO1 221644Z 03017G22KT 18/11 A3006 RMK A01 T01840110  RH  062%=      5-min Rain = 0
KDO1 221645Z 03014G19KT 18/11 A3006 RMK A01 T01840110  RH  062%=      5-min Rain = 0
KDO1 221646Z 02013G18KT 18/11 A3006 RMK A01 T01840110  RH  062%=      5-min Rain = 0
KDO1 221647Z 02013KT 18/11 A3006 RMK A01 T01840111  RH  062%=      5-min Rain = 0
KDO1 221648Z 02012G17KT 18/11 A3006 RMK A01 T01840110  RH  062%=      5-min Rain = 0
KDO1 221649Z 02012G18KT 19/11 A3006 RMK A01 T01850112  RH  063%=      5-min Rain = 0
KDO1 221650Z 02015KT 19/11 A3006 RMK A01 T01850110  RH  062%=      5-min Rain = 0
KDO1 221651Z 02015KT 19/11 A3006 RMK A01 T01850110  RH  062%=      5-min Rain = 0
KDO1 221652Z 02012G17KT 19/11 A3006 RMK A01 T01850111  RH  062%=      5-min Rain = 0
KDO1 221653Z 02014KT 19/11 A3006 RMK A01 T01850111  RH  062%=      5-min Rain = 0
KDO1 221654Z 01013KT 19/11 A3006 RMK A01 T01850111  RH  062%=      5-min Rain = 0
KDO1 221655Z 02014KT 19/11 A3006 RMK A01 T01850110  RH  061%=      5-min Rain = 0
KDO1 221656Z 01011KT 19/11 A3006 RMK A01 T01850110  RH  061%=      5-min Rain = 0
KDO1 221657Z 00013G18KT 19/11 A3006 RMK A01 T01850111  RH  062%=      5-min Rain = 0
KDO1 221658Z 01015G20KT 19/11 A3006 RMK A01 T01860110  RH  061%=      5-min Rain = 0
KDO1 221659Z 01013G18KT 19/11 A3006 RMK A01 T01860111  RH  061%=      5-min Rain = 0
KDO1 221700Z 02012KT 19/11 A3006 RMK A01 T01870111  RH  061%=      5-min Rain = 0
KDO1 221701Z 02012KT 19/11 A3006 RMK A01 T01880111  RH  061%=      5-min Rain = 0
KDO1 221702Z 03012KT 19/11 A3006 RMK A01 T01880113  RH  062%=      5-min Rain = 0
KDO1 221703Z 03010KT 19/11 A3006 RMK A01 T01880113  RH  061%=      5-min Rain = 0
KDO1 221704Z 02010KT 19/12 A3006 RMK A01 T01890115  RH  062%=      5-min Rain = 0
KDO1 221705Z 03012G17KT 19/11 A3006 RMK A01 T01900113  RH  061%=      5-min Rain = 0
KDO1 221706Z 02014KT 19/11 A3006 RMK A01 T01900113  RH  061%=      5-min Rain = 0
KDO1 221707Z 02013KT 19/11 A3006 RMK A01 T01900112  RH  061%=      5-min Rain = 0
KDO1 221708Z 03015G21KT 19/11 A3006 RMK A01 T01890112  RH  061%=      5-min Rain = 0
KDO1 221709Z 03014G19KT 19/11 A3006 RMK A01 T01890112  RH  061%=      5-min Rain = 0
KDO1 221710Z 01009KT 19/11 A3006 RMK A01 T01890114  RH  062%=      5-min Rain = 0
KDO1 221711Z 01011G17KT 19/11 A3006 RMK A01 T01910114  RH  061%=      5-min Rain = 0
KDO1 221712Z 02014G19KT 19/11 A3006 RMK A01 T01910113  RH  060%=      5-min Rain = 0
KDO1 221713Z 02014KT 19/11 A3006 RMK A01 T01910112  RH  060%=      5-min Rain = 0
KDO1 221714Z 02013KT 19/11 A3006 RMK A01 T01910113  RH  060%=      5-min Rain = 0
KDO1 221715Z 02013KT 19/11 A3006 RMK A01 T01910112  RH  060%=      5-min Rain = 0
KDO1 221716Z 02011KT 19/11 A3006 RMK A01 T01900113  RH  061%=      5-min Rain = 0
KDO1 221717Z 02011KT 19/11 A3006 RMK A01 T01920114  RH  061%=      5-min Rain = 0
KDO1 221718Z 03010KT 19/12 A3006 RMK A01 T01930115  RH  060%=      5-min Rain = 0
KDO1 221719Z 03013KT 19/12 A3006 RMK A01 T01940116  RH  060%=      5-min Rain = 0
KDO1 221720Z 03016KT 20/12 A3006 RMK A01 T01960115  RH  060%=      5-min Rain = 0
KDO1 221721Z 04013KT 20/11 A3006 RMK A01 T01960114  RH  059%=      5-min Rain = 0
KDO1 221722Z 03014KT 20/11 A3006 RMK A01 T01960114  RH  059%=      5-min Rain = 0
KDO1 221723Z 03011KT 20/12 A3006 RMK A01 T01970116  RH  059%=      5-min Rain = 0
KDO1 221724Z 04014KT 20/11 A3006 RMK A01 T01980114  RH  058%=      5-min Rain = 0
KDO1 221725Z 04011G16KT 20/11 A3006 RMK A01 T01980114  RH  058%=      5-min Rain = 0
KDO1 221726Z 02007KT 20/12 A3006 RMK A01 T01980117  RH  060%=      5-min Rain = 0
KDO1 221727Z 01010G16KT 20/12 A3006 RMK A01 T02010120  RH  059%=      5-min Rain = 0
KDO1 221728Z 01013G18KT 20/12 A3006 RMK A01 T02030116  RH  057%=      5-min Rain = 0
KDO1 221729Z 03009KT 20/12 A3006 RMK A01 T02040118  RH  058%=      5-min Rain = 0
KDO1 221730Z 04012KT 21/12 A3006 RMK A01 T02050119  RH  058%=      5-min Rain = 0
KDO1 221731Z 03009KT 21/12 A3006 RMK A01 T02050118  RH  057%=      5-min Rain = 0
KDO1 221732Z 03015KT 21/12 A3006 RMK A01 T02050119  RH  058%=      5-min Rain = 0
KDO1 221733Z 02012KT 21/12 A3006 RMK A01 T02050117  RH  057%=      5-min Rain = 0
KDO1 221734Z 03010KT 21/12 A3006 RMK A01 T02050116  RH  057%=      5-min Rain = 0
KDO1 221735Z 02015G21KT 20/12 A3006 RMK A01 T02040117  RH  057%=      5-min Rain = 0
KDO1 221736Z 01016KT 20/11 A3006 RMK A01 T02030114  RH  057%=      5-min Rain = 0
KDO1 221737Z 02015KT 20/11 A3006 RMK A01 T02010113  RH  057%=      5-min Rain = 0
KDO1 221738Z 03014KT 20/11 A3006 RMK A01 T02000114  RH  058%=      5-min Rain = 0
KDO1 221739Z 03017KT 20/11 A3006 RMK A01 T02010114  RH  058%=      5-min Rain = 0
KDO1 221740Z 03014KT 20/12 A3006 RMK A01 T02010115  RH  058%=      5-min Rain = 0
KDO1 221741Z 03013G18KT 20/11 A3006 RMK A01 T02000114  RH  058%=      5-min Rain = 0
KDO1 221742Z 03012KT 20/12 A3006 RMK A01 T02000115  RH  058%=      5-min Rain = 0
KDO1 221743Z 04015KT 20/11 A3006 RMK A01 T02000114  RH  058%=      5-min Rain = 0
KDO1 221744Z 04015KT 20/12 A3006 RMK A01 T01990115  RH  058%=      5-min Rain = 0
KDO1 221745Z 03013KT 20/11 A3005 RMK A01 T02000113  RH  057%=      5-min Rain = 0
KDO1 221746Z 03016KT 20/11 A3006 RMK A01 T02000113  RH  057%=      5-min Rain = 0
KDO1 221747Z 02012KT 20/12 A3005 RMK A01 T02000115  RH  058%=      5-min Rain = 0
KDO1 221748Z 01014KT 20/11 A3005 RMK A01 T01990114  RH  058%=      5-min Rain = 0
KDO1 221749Z 03012G17KT 20/11 A3005 RMK A01 T01990114  RH  058%=      5-min Rain = 0
KDO1 221750Z 02011KT 20/11 A3005 RMK A01 T02000113  RH  057%=      5-min Rain = 0
KDO1 221751Z 01010G18KT 20/11 A3005 RMK A01 T02000114  RH  058%=      5-min Rain = 0
KDO1 221752Z 01013KT 20/11 A3005 RMK A01 T02010114  RH  057%=      5-min Rain = 0
KDO1 221753Z 01012G18KT 20/12 A3005 RMK A01 T02010115  RH  058%=      5-min Rain = 0
KDO1 221754Z 04012KT 20/11 A3006 RMK A01 T02000114  RH  058%=      5-min Rain = 0
KDO1 221755Z 05011KT 20/11 A3006 RMK A01 T02010114  RH  057%=      5-min Rain = 0
KDO1 221756Z 05011KT 20/12 A3006 RMK A01 T02020116  RH  058%=      5-min Rain = 0
KDO1 221757Z 03010KT 20/12 A3006 RMK A01 T02040117  RH  057%=      5-min Rain = 0
KDO1 221758Z 03012KT 21/12 A3006 RMK A01 T02050116  RH  057%=      5-min Rain = 0
KDO1 221759Z 04012KT 21/12 A3006 RMK A01 T02050115  RH  056%=      5-min Rain = 0
KDO1 221800Z 02011KT 20/12 A3006 RMK A01 T02040115  RH  057%=      5-min Rain = 0
KDO1 221801Z 02013KT 20/12 A3006 RMK A01 T02030115  RH  057%=      5-min Rain = 0
KDO1 221802Z 02015KT 20/11 A3006 RMK A01 T02020113  RH  056%=      5-min Rain = 0
KDO1 221803Z 03013KT 20/11 A3006 RMK A01 T02010113  RH  057%=      5-min Rain = 0
KDO1 221804Z 01012G17KT 20/11 A3006 RMK A01 T02010114  RH  057%=      5-min Rain = 0
KDO1 221805Z 02011KT 20/11 A3006 RMK A01 T02020114  RH  057%=      5-min Rain = 0
KDO1 221806Z 02013KT 20/11 A3006 RMK A01 T02020114  RH  057%=      5-min Rain = 0
KDO1 221807Z 04012KT 20/11 A3006 RMK A01 T02020114  RH  057%=      5-min Rain = 0
KDO1 221808Z 04013KT 20/12 A3006 RMK A01 T02030115  RH  057%=      5-min Rain = 0
KDO1 221809Z 03011G16KT 20/12 A3006 RMK A01 T02040115  RH  057%=      5-min Rain = 0
KDO1 221810Z 02012KT 20/12 A3006 RMK A01 T02040115  RH  057%=      5-min Rain = 0
KDO1 221811Z 03011G17KT 21/12 A3006 RMK A01 T02050116  RH  056%=      5-min Rain = 0
KDO1 221812Z 03010KT 21/12 A3006 RMK A01 T02060117  RH  057%=      5-min Rain = 0
KDO1 221813Z 03009KT 21/12 A3006 RMK A01 T02070120  RH  057%=      5-min Rain = 0
KDO1 221814Z 02010KT 21/12 A3006 RMK A01 T02090118  RH  056%=      5-min Rain = 0
KDO1 221815Z 02015KT 21/12 A3006 RMK A01 T02100117  RH  055%=      5-min Rain = 0
KDO1 221816Z 02013G18KT 21/12 A3006 RMK A01 T02100116  RH  055%=      5-min Rain = 0
KDO1 221817Z 03015KT 21/11 A3006 RMK A01 T02090114  RH  054%=      5-min Rain = 0
KDO1 221818Z 02011G16KT 21/11 A3006 RMK A01 T02080114  RH  055%=      5-min Rain = 0
KDO1 221819Z 02010KT 21/12 A3006 RMK A01 T02080117  RH  056%=      5-min Rain = 0
KDO1 221820Z 01011KT 21/12 A3006 RMK A01 T02090116  RH  055%=      5-min Rain = 0
KDO1 221821Z 01012KT 21/12 A3005 RMK A01 T02100116  RH  055%=      5-min Rain = 0
KDO1 221822Z 01013KT 21/12 A3005 RMK A01 T02100115  RH  055%=      5-min Rain = 0
KDO1 221823Z 01013KT 21/12 A3005 RMK A01 T02090115  RH  055%=      5-min Rain = 0
KDO1 221824Z 02015KT 21/11 A3005 RMK A01 T02100114  RH  054%=      5-min Rain = 0
KDO1 221825Z 02013KT 21/12 A3005 RMK A01 T02090115  RH  055%=      5-min Rain = 0
KDO1 221826Z 02010G15KT 21/12 A3005 RMK A01 T02100117  RH  055%=      5-min Rain = 0
KDO1 221827Z 01013KT 21/12 A3006 RMK A01 T02110115  RH  054%=      5-min Rain = 0
KDO1 221828Z 01013G18KT 21/11 A3006 RMK A01 T02100114  RH  054%=      5-min Rain = 0
KDO1 221829Z 02014G19KT 21/11 A3006 RMK A01 T02090114  RH  054%=      5-min Rain = 0
KDO1 221830Z 02015G20KT 21/11 A3006 RMK A01 T02090114  RH  054%=      5-min Rain = 0
KDO1 221831Z 02012KT 21/12 A3006 RMK A01 T02090115  RH  055%=      5-min Rain = 0
KDO1 221832Z 04011KT 21/12 A3006 RMK A01 T02090116  RH  055%=      5-min Rain = 0
KDO1 221833Z 03011KT 21/12 A3006 RMK A01 T02100117  RH  055%=      5-min Rain = 0
KDO1 221834Z 02013KT 21/12 A3006 RMK A01 T02120117  RH  055%=      5-min Rain = 0
KDO1 221835Z 03015KT 21/11 A3006 RMK A01 T02120114  RH  054%=      5-min Rain = 0
KDO1 221836Z 04012KT 21/12 A3006 RMK A01 T02110116  RH  054%=      5-min Rain = 0
KDO1 221837Z 05011G16KT 21/12 A3006 RMK A01 T02120118  RH  055%=      5-min Rain = 0
KDO1 221838Z 05013KT 21/12 A3006 RMK A01 T02130118  RH  054%=      5-min Rain = 0
KDO1 221839Z 04012KT 21/12 A3006 RMK A01 T02130116  RH  054%=      5-min Rain = 0
KDO1 221840Z 04015KT 21/12 A3006 RMK A01 T02130117  RH  054%=      5-min Rain = 0
KDO1 221841Z 05014KT 21/12 A3006 RMK A01 T02120115  RH  054%=      5-min Rain = 0
KDO1 221842Z 04013G18KT 21/12 A3006 RMK A01 T02120116  RH  054%=      5-min Rain = 0
KDO1 221843Z 03016KT 21/12 A3006 RMK A01 T02120116  RH  054%=      5-min Rain = 0
KDO1 221844Z 03015KT 21/12 A3006 RMK A01 T02120115  RH  054%=      5-min Rain = 0
KDO1 221845Z 02011KT 21/12 A3006 RMK A01 T02120118  RH  055%=      5-min Rain = 0
KDO1 221846Z 03013KT 21/12 A3006 RMK A01 T02130117  RH  054%=      5-min Rain = 0
KDO1 221847Z 04011KT 21/12 A3006 RMK A01 T02130116  RH  054%=      5-min Rain = 0
KDO1 221848Z 04014KT 21/12 A3006 RMK A01 T02140117  RH  054%=      5-min Rain = 0
KDO1 221849Z 03013KT 21/12 A3006 RMK A01 T02140116  RH  053%=      5-min Rain = 0
KDO1 221850Z 03013KT 21/12 A3006 RMK A01 T02140116  RH  054%=      5-min Rain = 0
KDO1 221851Z 04011KT 21/12 A3006 RMK A01 T02130116  RH  054%=      5-min Rain = 0
KDO1 221852Z 04015KT 21/12 A3005 RMK A01 T02140116  RH  054%=      5-min Rain = 0
KDO1 221853Z 02012G17KT 21/12 A3005 RMK A01 T02140118  RH  054%=      5-min Rain = 0
KDO1 221854Z 02014G20KT 22/12 A3005 RMK A01 T02150117  RH  054%=      5-min Rain = 0
KDO1 221855Z 02014KT 22/12 A3005 RMK A01 T02160116  RH  053%=      5-min Rain = 0
KDO1 221856Z 03015KT 21/12 A3005 RMK A01 T02140116  RH  053%=      5-min Rain = 0
KDO1 221857Z 04012KT 21/12 A3005 RMK A01 T02140118  RH  054%=      5-min Rain = 0
KDO1 221858Z 04015G20KT 22/12 A3005 RMK A01 T02150117  RH  054%=      5-min Rain = 0
KDO1 221859Z 03015G20KT 22/12 A3005 RMK A01 T02150116  RH  053%=      5-min Rain = 0
KDO1 221900Z 01015KT 22/12 A3005 RMK A01 T02150116  RH  053%=      5-min Rain = 0
KDO1 221901Z 01013G20KT 21/11 A3005 RMK A01 T02130114  RH  053%=      5-min Rain = 0
KDO1 221902Z 02013G18KT 21/11 A3005 RMK A01 T02120113  RH  053%=      5-min Rain = 0
KDO1 221903Z 02010KT 21/12 A3005 RMK A01 T02110116  RH  055%=      5-min Rain = 0
KDO1 221904Z 03012KT 21/12 A3005 RMK A01 T02130116  RH  054%=      5-min Rain = 0
KDO1 221905Z 02013KT 21/12 A3005 RMK A01 T02130116  RH  054%=      5-min Rain = 0
KDO1 221906Z 01014G19KT 21/12 A3005 RMK A01 T02140116  RH  054%=      5-min Rain = 0
KDO1 221907Z 01013KT 21/11 A3005 RMK A01 T02130113  RH  053%=      5-min Rain = 0
KDO1 221908Z 01015KT 21/12 A3005 RMK A01 T02110115  RH  054%=      5-min Rain = 0
KDO1 221909Z 01013KT 21/12 A3005 RMK A01 T02110115  RH  054%=      5-min Rain = 0
KDO1 221910Z 02012G17KT 21/12 A3005 RMK A01 T02110115  RH  054%=      5-min Rain = 0
KDO1 221911Z 02015KT 21/12 A3005 RMK A01 T02120115  RH  054%=      5-min Rain = 0
KDO1 221912Z 02013G18KT 21/11 A3005 RMK A01 T02110114  RH  054%=      5-min Rain = 0
KDO1 221913Z 01011KT 21/12 A3005 RMK A01 T02100116  RH  055%=      5-min Rain = 0
KDO1 221914Z 03014KT 21/12 A3005 RMK A01 T02110116  RH  055%=      5-min Rain = 0
KDO1 221915Z 02012G18KT 21/12 A3005 RMK A01 T02110117  RH  055%=      5-min Rain = 0
KDO1 221916Z 01013G19KT 21/11 A3005 RMK A01 T02110114  RH  054%=      5-min Rain = 0
KDO1 221917Z 02012KT 21/11 A3005 RMK A01 T02090113  RH  054%=      5-min Rain = 0
KDO1 221918Z 02014G20KT 21/11 A3005 RMK A01 T02080113  RH  054%=      5-min Rain = 0
KDO1 221919Z 02013KT 21/11 A3005 RMK A01 T02080113  RH  055%=      5-min Rain = 0
KDO1 221920Z 01013G18KT 21/11 A3005 RMK A01 T02070113  RH  055%=      5-min Rain = 0
KDO1 221921Z 01015G21KT 21/11 A3005 RMK A01 T02070114  RH  055%=      5-min Rain = 0
KDO1 221922Z 02013KT 21/11 A3005 RMK A01 T02070112  RH  054%=      5-min Rain = 0
KDO1 221923Z 03013G19KT 21/11 A3006 RMK A01 T02070113  RH  055%=      5-min Rain = 0
KDO1 221924Z 03012KT 21/11 A3006 RMK A01 T02070113  RH  055%=      5-min Rain = 0
KDO1 221925Z 02010KT 21/11 A3006 RMK A01 T02070112  RH  054%=      5-min Rain = 0
KDO1 221926Z 02008KT 21/11 A3006 RMK A01 T02060114  RH  055%=      5-min Rain = 0
KDO1 221927Z 02013KT 21/11 A3006 RMK A01 T02070114  RH  055%=      5-min Rain = 0
KDO1 221928Z 03014KT 21/11 A3006 RMK A01 T02070113  RH  055%=      5-min Rain = 0
KDO1 221929Z 04016KT 21/11 A3006 RMK A01 T02070112  RH  054%=      5-min Rain = 0
KDO1 221930Z 03016KT 21/11 A3005 RMK A01 T02080113  RH  055%=      5-min Rain = 0
KDO1 221931Z 02018KT 21/11 A3005 RMK A01 T02070113  RH  055%=      5-min Rain = 0
KDO1 221932Z 02015KT 21/11 A3005 RMK A01 T02070112  RH  054%=      5-min Rain = 0
KDO1 221933Z 02014G20KT 21/11 A3005 RMK A01 T02070112  RH  055%=      5-min Rain = 0
KDO1 221934Z 02012G18KT 21/11 A3005 RMK A01 T02070113  RH  055%=      5-min Rain = 0
KDO1 221935Z 02015KT 21/11 A3005 RMK A01 T02070113  RH  055%=      5-min Rain = 0
KDO1 221936Z 02017KT 21/11 A3005 RMK A01 T02080112  RH  054%=      5-min Rain = 0
KDO1 221937Z 02015KT 21/11 A3005 RMK A01 T02080113  RH  054%=      5-min Rain = 0
KDO1 221938Z 02016KT 21/11 A3005 RMK A01 T02080113  RH  054%=      5-min Rain = 0
KDO1 221939Z 02016KT 21/11 A3004 RMK A01 T02080113  RH  054%=      5-min Rain = 0
KDO1 221940Z 03012KT 21/11 A3004 RMK A01 T02080113  RH  055%=      5-min Rain = 0
KDO1 221941Z 04015G20KT 21/11 A3004 RMK A01 T02090114  RH  054%=      5-min Rain = 0
KDO1 221942Z 04010KT 21/12 A3004 RMK A01 T02100115  RH  055%=      5-min Rain = 0
KDO1 221943Z 04013KT 21/12 A3004 RMK A01 T02110117  RH  055%=      5-min Rain = 0
KDO1 221944Z 03009KT 21/12 A3005 RMK A01 T02120117  RH  055%=      5-min Rain = 0
KDO1 221945Z 04008KT 21/12 A3006 RMK A01 T02120116  RH  054%=      5-min Rain = 0
KDO1 221946Z 04004KT 21/12 A3007 RMK A01 T02130119  RH  055%=      5-min Rain = 0
KDO1 221947Z 04010G15KT 21/12 A3007 RMK A01 T02130116  RH  054%=      5-min Rain = 0
KDO1 221948Z 05008KT 21/11 A3007 RMK A01 T02120114  RH  053%=      5-min Rain = 0
KDO1 221949Z 04012KT 21/12 A3007 RMK A01 T02120116  RH  054%=      5-min Rain = 0
KDO1 221950Z 03014KT 21/11 A3007 RMK A01 T02110114  RH  054%=      5-min Rain = 0
KDO1 221951Z 04012G18KT 21/11 A3007 RMK A01 T02100114  RH  054%=      5-min Rain = 0
KDO1 221952Z 04016KT 21/12 A3007 RMK A01 T02100115  RH  055%=      5-min Rain = 0
KDO1 221953Z 03012KT 21/11 A3006 RMK A01 T02100113  RH  054%=      5-min Rain = 0
KDO1 221954Z 04014KT 21/11 A3007 RMK A01 T02100114  RH  054%=      5-min Rain = 0
KDO1 221955Z 05014KT 21/11 A3007 RMK A01 T02090113  RH  054%=      5-min Rain = 0
KDO1 221956Z 05011G16KT 21/11 A3007 RMK A01 T02090112  RH  054%=      5-min Rain = 0
KDO1 221957Z 05012KT 21/11 A3008 RMK A01 T02080112  RH  054%=      5-min Rain = 0
KDO1 221958Z 04009KT 21/11 A3008 RMK A01 T02080113  RH  055%=      5-min Rain = 0
KDO1 221959Z 05010KT 21/12 A3008 RMK A01 T02080115  RH  055%=      5-min Rain = 0
KDO1 222000Z 05011KT 21/11 A3007 RMK A01 T02090114  RH  055%=      5-min Rain = 0
KDO1 222001Z 04010KT 21/11 A3007 RMK A01 T02090113  RH  054%=      5-min Rain = 0
KDO1 222002Z 04010G16KT 21/12 A3007 RMK A01 T02090115  RH  055%=      5-min Rain = 0
KDO1 222003Z 03012G18KT 21/11 A3006 RMK A01 T02090114  RH  055%=      5-min Rain = 0
KDO1 222004Z 02011KT 21/12 A3006 RMK A01 T02080115  RH  055%=      5-min Rain = 0
KDO1 222005Z 04012KT 21/12 A3007 RMK A01 T02080115  RH  055%=      5-min Rain = 0
KDO1 222006Z 04011KT 21/11 A3007 RMK A01 T02090114  RH  055%=      5-min Rain = 0
KDO1 222007Z 04010KT 21/12 A3007 RMK A01 T02090115  RH  055%=      5-min Rain = 0
KDO1 222008Z 04014G19KT 21/12 A3007 RMK A01 T02090115  RH  055%=      5-min Rain = 0
KDO1 222009Z 03013KT 21/11 A3008 RMK A01 T02090113  RH  054%=      5-min Rain = 0
KDO1 222010Z 03011KT 21/11 A3008 RMK A01 T02090113  RH  054%=      5-min Rain = 0
KDO1 222011Z 03011KT 21/11 A3008 RMK A01 T02080113  RH  055%=      5-min Rain = 0
KDO1 222012Z 02010KT 21/11 A3008 RMK A01 T02080113  RH  055%=      5-min Rain = 0
KDO1 222013Z 02009KT 21/11 A3008 RMK A01 T02080114  RH  055%=      5-min Rain = 0
KDO1 222014Z 02010KT 21/11 A3008 RMK A01 T02080114  RH  055%=      5-min Rain = 0
KDO1 222015Z 03010G15KT 21/11 A3007 RMK A01 T02080114  RH  055%=      5-min Rain = 0
KDO1 222016Z 03012KT 21/11 A3007 RMK A01 T02080114  RH  055%=      5-min Rain = 0
KDO1 222017Z 04013KT 21/12 A3007 RMK A01 T02080115  RH  055%=      5-min Rain = 0
KDO1 222018Z 04014KT 21/12 A3006 RMK A01 T02080115  RH  055%=      5-min Rain = 0
KDO1 222019Z 03016KT 21/12 A3006 RMK A01 T02090116  RH  055%=      5-min Rain = 0
KDO1 222020Z 03017KT 21/12 A3005 RMK A01 T02090115  RH  055%=      5-min Rain = 0
KDO1 222021Z 02019KT 21/12 A3004 RMK A01 T02090115  RH  055%=      5-min Rain = 0
KDO1 222022Z 01016G21KT 21/12 A3004 RMK A01 T02090115  RH  055%=      5-min Rain = 0
KDO1 222023Z 02016KT 21/11 A3004 RMK A01 T02090114  RH  054%=      5-min Rain = 0
KDO1 222024Z 02012G18KT 21/11 A3004 RMK A01 T02090114  RH  054%=      5-min Rain = 0
KDO1 222025Z 03015G20KT 21/12 A3004 RMK A01 T02090115  RH  055%=      5-min Rain = 0
KDO1 222026Z 03013KT 21/11 A3005 RMK A01 T02100114  RH  054%=      5-min Rain = 0
KDO1 222027Z 04011KT 21/11 A3005 RMK A01 T02100114  RH  054%=      5-min Rain = 0
KDO1 222028Z 03009KT 21/12 A3006 RMK A01 T02110115  RH  054%=      5-min Rain = 0
KDO1 222029Z 03008KT 21/12 A3006 RMK A01 T02120116  RH  054%=      5-min Rain = 0
KDO1 222030Z 04007KT 21/12 A3006 RMK A01 T02120116  RH  054%=      5-min Rain = 0
KDO1 222031Z 03011KT 21/12 A3006 RMK A01 T02130117  RH  054%=      5-min Rain = 0
KDO1 222032Z 03012KT 21/12 A3006 RMK A01 T02130116  RH  054%=      5-min Rain = 0
KDO1 222033Z 04012KT 21/12 A3006 RMK A01 T02130116  RH  054%=      5-min Rain = 0
KDO1 222034Z 03011KT 21/12 A3007 RMK A01 T02130116  RH  054%=      5-min Rain = 0
KDO1 222035Z 04010KT 21/11 A3007 RMK A01 T02140114  RH  053%=      5-min Rain = 0
KDO1 222036Z 06010KT 21/12 A3007 RMK A01 T02130115  RH  054%=      5-min Rain = 0
KDO1 222037Z 06009KT 21/12 A3008 RMK A01 T02130116  RH  054%=      5-min Rain = 0
KDO1 222038Z 06010KT 21/12 A3008 RMK A01 T02130116  RH  054%=      5-min Rain = 0
KDO1 222039Z 05011KT 21/12 A3009 RMK A01 T02120115  RH  054%=      5-min Rain = 0
KDO1 222040Z 04007KT 21/12 A3009 RMK A01 T02110115  RH  054%=      5-min Rain = 0
KDO1 222041Z 04006KT 21/12 A3009 RMK A01 T02110115  RH  054%=      5-min Rain = 0
KDO1 222042Z 05007KT 21/12 A3009 RMK A01 T02110116  RH  055%=      5-min Rain = 0
KDO1 222043Z 04008KT 21/11 A3009 RMK A01 T02110114  RH  054%=      5-min Rain = 0
KDO1 222044Z 03009KT 21/11 A3008 RMK A01 T02100114  RH  054%=      5-min Rain = 0
KDO1 222045Z 04010KT 21/11 A3008 RMK A01 T02100114  RH  054%=      5-min Rain = 0
KDO1 222046Z 04011KT 21/11 A3008 RMK A01 T02100114  RH  054%=      5-min Rain = 0
KDO1 222047Z 03010KT 21/11 A3008 RMK A01 T02100114  RH  054%=      5-min Rain = 0
KDO1 222048Z 04011KT 21/11 A3008 RMK A01 T02100114  RH  054%=      5-min Rain = 0
KDO1 222049Z 04011KT 21/11 A3007 RMK A01 T02100113  RH  054%=      5-min Rain = 0
KDO1 222050Z 04011KT 21/11 A3007 RMK A01 T02100113  RH  054%=      5-min Rain = 0
KDO1 222051Z 04011KT 21/11 A3007 RMK A01 T02100114  RH  054%=      5-min Rain = 0
KDO1 222052Z 04010KT 21/11 A3007 RMK A01 T02100114  RH  054%=      5-min Rain = 0
KDO1 222053Z 05008KT 21/12 A3007 RMK A01 T02110115  RH  054%=      5-min Rain = 0
KDO1 222054Z 05007KT 21/12 A3007 RMK A01 T02110116  RH  055%=      5-min Rain = 0
KDO1 222055Z 04011KT 21/12 A3008 RMK A01 T02120118  RH  055%=      5-min Rain = 0
KDO1 222056Z 05011KT 21/12 A3008 RMK A01 T02120115  RH  054%=      5-min Rain = 0
KDO1 222057Z 04009KT 21/12 A3007 RMK A01 T02110116  RH  054%=      5-min Rain = 0
KDO1 222058Z 03013G18KT 21/12 A3007 RMK A01 T02110116  RH  055%=      5-min Rain = 0
KDO1 222059Z 04015KT 21/11 A3007 RMK A01 T02110114  RH  054%=      5-min Rain = 0
KDO1 222100Z 04013KT 21/11 A3006 RMK A01 T02110114  RH  054%=      5-min Rain = 0
KDO1 222101Z 04014G19KT 21/12 A3006 RMK A01 T02100115  RH  054%=      5-min Rain = 0
KDO1 222102Z 04015KT 21/11 A3006 RMK A01 T02100114  RH  054%=      5-min Rain = 0
KDO1 222103Z 03012KT 21/12 A3005 RMK A01 T02110115  RH  054%=      5-min Rain = 0
KDO1 222104Z 04012KT 21/12 A3005 RMK A01 T02100115  RH  054%=      5-min Rain = 0
KDO1 222105Z 03013KT 21/12 A3005 RMK A01 T02110117  RH  055%=      5-min Rain = 0
KDO1 222106Z 03016G21KT 21/12 A3005 RMK A01 T02110116  RH  054%=      5-min Rain = 0
KDO1 222107Z 04013KT 21/12 A3005 RMK A01 T02110116  RH  054%=      5-min Rain = 0
KDO1 222108Z 03013G20KT 21/12 A3004 RMK A01 T02110117  RH  055%=      5-min Rain = 0
KDO1 222109Z 03015KT 21/12 A3004 RMK A01 T02110116  RH  055%=      5-min Rain = 0
KDO1 222110Z 02013G20KT 21/12 A3004 RMK A01 T02110117  RH  055%=      5-min Rain = 0
KDO1 222111Z 02014G19KT 21/12 A3004 RMK A01 T02100116  RH  055%=      5-min Rain = 0
KDO1 222112Z 02015G21KT 21/12 A3004 RMK A01 T02090115  RH  055%=      5-min Rain = 0
KDO1 222113Z 02014G20KT 21/11 A3005 RMK A01 T02090114  RH  055%=      5-min Rain = 0
KDO1 222114Z 02016KT 21/12 A3005 RMK A01 T02080115  RH  055%=      5-min Rain = 0
KDO1 222115Z 02013KT 21/11 A3005 RMK A01 T02080114  RH  055%=      5-min Rain = 0
KDO1 222116Z 02014G19KT 21/11 A3005 RMK A01 T02070113  RH  055%=      5-min Rain = 0
KDO1 222117Z 01011G18KT 21/12 A3005 RMK A01 T02070115  RH  056%=      5-min Rain = 0
KDO1 222118Z 02013G18KT 21/11 A3005 RMK A01 T02070113  RH  055%=      5-min Rain = 0
KDO1 222119Z 02014KT 21/11 A3005 RMK A01 T02060113  RH  055%=      5-min Rain = 0
KDO1 222120Z 01014KT 21/11 A3005 RMK A01 T02060112  RH  055%=      5-min Rain = 0
KDO1 222121Z 00009KT 21/11 A3005 RMK A01 T02060113  RH  055%=      5-min Rain = 0
KDO1 222122Z 00010KT 21/11 A3005 RMK A01 T02060114  RH  055%=      5-min Rain = 0
KDO1 222123Z 00010KT 21/12 A3005 RMK A01 T02060115  RH  056%=      5-min Rain = 0
KDO1 222124Z 36013G18KT 21/11 A3005 RMK A01 T02060114  RH  055%=      5-min Rain = 0
KDO1 222125Z 01013G20KT 21/11 A3004 RMK A01 T02060113  RH  055%=      5-min Rain = 0
KDO1 222126Z 00012KT 21/11 A3004 RMK A01 T02070114  RH  055%=      5-min Rain = 0
KDO1 222127Z 02011G16KT 21/12 A3004 RMK A01 T02070115  RH  056%=      5-min Rain = 0
KDO1 222128Z 01013KT 21/11 A3004 RMK A01 T02060114  RH  055%=      5-min Rain = 0
KDO1 222129Z 01013KT 21/12 A3004 RMK A01 T02070115  RH  056%=      5-min Rain = 0
KDO1 222130Z 02012KT 21/12 A3004 RMK A01 T02070115  RH  056%=      5-min Rain = 0
KDO1 222131Z 02018KT 21/11 A3004 RMK A01 T02070114  RH  055%=      5-min Rain = 0
KDO1 222132Z 02015KT 21/11 A3003 RMK A01 T02070113  RH  055%=      5-min Rain = 0
KDO1 222133Z 02017KT 21/11 A3003 RMK A01 T02070114  RH  055%=      5-min Rain = 0
KDO1 222134Z 02016G23KT 21/11 A3003 RMK A01 T02070113  RH  055%=      5-min Rain = 0
KDO1 222135Z 02014KT 21/11 A3003 RMK A01 T02070113  RH  055%=      5-min Rain = 0
KDO1 222136Z 02017KT 21/11 A3004 RMK A01 T02060113  RH  055%=      5-min Rain = 0
KDO1 222137Z 02014KT 21/11 A3004 RMK A01 T02060113  RH  055%=      5-min Rain = 0
KDO1 222138Z 01011KT 21/11 A3004 RMK A01 T02060112  RH  055%=      5-min Rain = 0
KDO1 222139Z 01006KT 21/11 A3005 RMK A01 T02060114  RH  056%=      5-min Rain = 0
KDO1 222140Z 00006KT 21/12 A3005 RMK A01 T02060115  RH  056%=      5-min Rain = 0
KDO1 222141Z 00007KT 21/12 A3005 RMK A01 T02060116  RH  056%=      5-min Rain = 0
KDO1 222142Z 01008KT 21/12 A3006 RMK A01 T02060115  RH  056%=      5-min Rain = 0
KDO1 222143Z 01008KT 21/12 A3006 RMK A01 T02050115  RH  056%=      5-min Rain = 0
KDO1 222144Z 02008G13KT 21/12 A3006 RMK A01 T02050115  RH  056%=      5-min Rain = 0
KDO1 222145Z 02007KT 21/12 A3006 RMK A01 T02050115  RH  056%=      5-min Rain = 0
KDO1 222146Z 01009KT 21/12 A3006 RMK A01 T02050115  RH  056%=      5-min Rain = 0
KDO1 222147Z 01008KT 21/12 A3006 RMK A01 T02050115  RH  056%=      5-min Rain = 0
KDO1 222148Z 01009KT 20/12 A3005 RMK A01 T02040115  RH  057%=      5-min Rain = 0
KDO1 222149Z 01011KT 20/12 A3005 RMK A01 T02040115  RH  056%=      5-min Rain = 0
KDO1 222150Z 01008KT 20/12 A3005 RMK A01 T02040115  RH  056%=      5-min Rain = 0
KDO1 222151Z 00008KT 20/12 A3005 RMK A01 T02040116  RH  057%=      5-min Rain = 0
KDO1 222152Z 01010KT 20/12 A3005 RMK A01 T02040117  RH  057%=      5-min Rain = 0
KDO1 222153Z 01010G15KT 20/12 A3005 RMK A01 T02030115  RH  057%=      5-min Rain = 0
KDO1 222154Z 01010KT 20/11 A3005 RMK A01 T02030113  RH  056%=      5-min Rain = 0
KDO1 222155Z 02009G15KT 20/11 A3005 RMK A01 T02030114  RH  057%=      5-min Rain = 0
KDO1 222156Z 03011KT 20/12 A3005 RMK A01 T02030115  RH  057%=      5-min Rain = 0
KDO1 222157Z 03012KT 20/11 A3005 RMK A01 T02020114  RH  057%=      5-min Rain = 0
KDO1 222158Z 02010KT 20/11 A3005 RMK A01 T02020113  RH  057%=      5-min Rain = 0
KDO1 222159Z 02011KT 20/11 A3005 RMK A01 T02020114  RH  057%=      5-min Rain = 0
KDO1 222200Z 02010KT 20/11 A3005 RMK A01 T02020114  RH  057%=      5-min Rain = 0
KDO1 222201Z 02012KT 20/12 A3004 RMK A01 T02020115  RH  057%=      5-min Rain = 0
KDO1 222202Z 02013G18KT 20/11 A3004 RMK A01 T02020114  RH  057%=      5-min Rain = 0
KDO1 222203Z 02014KT 20/12 A3004 RMK A01 T02020115  RH  057%=      5-min Rain = 0
KDO1 222204Z 03012KT 20/11 A3003 RMK A01 T02010114  RH  057%=      5-min Rain = 0
KDO1 222205Z 03011KT 20/12 A3003 RMK A01 T02010115  RH  058%=      5-min Rain = 0
KDO1 222206Z 03010KT 20/12 A3003 RMK A01 T02010116  RH  058%=      5-min Rain = 0
KDO1 222207Z 03011KT 20/12 A3003 RMK A01 T02010115  RH  058%=      5-min Rain = 0
KDO1 222208Z 04013KT 20/12 A3004 RMK A01 T02010115  RH  058%=      5-min Rain = 0
KDO1 222209Z 04012KT 20/12 A3004 RMK A01 T02010115  RH  058%=      5-min Rain = 0
KDO1 222210Z 03010G15KT 20/11 A3005 RMK A01 T02010114  RH  057%=      5-min Rain = 0
KDO1 222211Z 04005KT 20/12 A3005 RMK A01 T02020116  RH  058%=      5-min Rain = 0
KDO1 222212Z 00002KT 20/12 A3006 RMK A01 T02020117  RH  058%=      5-min Rain = 0
KDO1 222213Z 32002KT 20/12 A3007 RMK A01 T02020116  RH  058%=      5-min Rain = 0
KDO1 222214Z 29004KT 20/12 A3008 RMK A01 T02020116  RH  058%=      5-min Rain = 0
KDO1 222215Z 27007KT 20/12 A3009 RMK A01 T02020116  RH  058%=      5-min Rain = 0
KDO1 222216Z 26008KT 20/12 A301 RMK A01 T02020118  RH  059%=      5-min Rain = 0
KDO1 222217Z 26010KT 20/12 A301 RMK A01 T02010117  RH  059%=      5-min Rain = 0
KDO1 222218Z 25012KT 20/12 A3011 RMK A01 T02000117  RH  059%=      5-min Rain = 0
KDO1 222219Z 25013KT 20/12 A3011 RMK A01 T02000116  RH  058%=      5-min Rain = 0
KDO1 222220Z 26009KT 20/12 A3011 RMK A01 T02000116  RH  059%=      5-min Rain = 0
KDO1 222221Z 26010KT 20/12 A3011 RMK A01 T01990116  RH  059%=      5-min Rain = 0
KDO1 222222Z 27008KT 20/12 A3011 RMK A01 T01980115  RH  059%=      5-min Rain = 0
KDO1 222223Z 28006KT 20/12 A3011 RMK A01 T01980117  RH  060%=      5-min Rain = 0
KDO1 222224Z 29007KT 20/12 A301 RMK A01 T01970118  RH  060%=      5-min Rain = 0
KDO1 222225Z 30006KT 20/12 A301 RMK A01 T01970116  RH  059%=      5-min Rain = 0
KDO1 222226Z 31005KT 20/12 A301 RMK A01 T01970116  RH  060%=      5-min Rain = 0
KDO1 222227Z 33007KT 20/12 A301 RMK A01 T01960117  RH  060%=      5-min Rain = 0
KDO1 222228Z 34008KT 20/12 A3009 RMK A01 T01960117  RH  060%=      5-min Rain = 0
KDO1 222229Z 35010KT 20/12 A3009 RMK A01 T01960121  RH  062%=      5-min Rain = 0
KDO1 222230Z 36010KT 20/12 A3008 RMK A01 T01950122  RH  063%=      5-min Rain = 0
KDO1 222231Z 35010KT 19/13 A3008 RMK A01 T01940125  RH  065%=      5-min Rain = 0
KDO1 222232Z 34009KT 19/13 A3008 RMK A01 T01920129  RH  067%=      5-min Rain = 0
KDO1 222233Z 35008KT 19/13 A3008 RMK A01 T01910132  RH  069%=      5-min Rain = 0
KDO1 222234Z 35009KT 19/13 A3008 RMK A01 T01890129  RH  068%=      5-min Rain = 0
KDO1 222235Z 35009KT 19/13 A3008 RMK A01 T01890129  RH  068%=      5-min Rain = 0
KDO1 222236Z 35009KT 19/13 A3008 RMK A01 T01880129  RH  069%=      5-min Rain = 0
KDO1 222237Z 35009KT 19/13 A3008 RMK A01 T01880128  RH  068%=      5-min Rain = 0
KDO1 222238Z 36009KT 19/13 A3008 RMK A01 T01890127  RH  068%=      5-min Rain = 0
KDO1 222239Z 35010KT 19/13 A3008 RMK A01 T01880129  RH  068%=      5-min Rain = 0
KDO1 222240Z 36009KT 19/13 A3008 RMK A01 T01880128  RH  068%=      5-min Rain = 0
KDO1 222241Z 35009KT 19/13 A3008 RMK A01 T01880128  RH  068%=      5-min Rain = 0
KDO1 222242Z 36007KT 19/13 A3008 RMK A01 T01880131  RH  069%=      5-min Rain = 0
KDO1 222243Z 00009KT 19/13 A3008 RMK A01 T01880132  RH  070%=      5-min Rain = 0
KDO1 222244Z 01007KT 19/13 A3008 RMK A01 T01870129  RH  069%=      5-min Rain = 0
KDO1 222245Z 00008KT 19/13 A3008 RMK A01 T01870128  RH  069%=      5-min Rain = 0
KDO1 222246Z 01008KT 19/13 A3008 RMK A01 T01860127  RH  068%=      5-min Rain = 0
KDO1 222247Z 02008KT 19/13 A3008 RMK A01 T01860129  RH  069%=      5-min Rain = 0
KDO1 222248Z 02008KT 19/13 A3009 RMK A01 T01860128  RH  069%=      5-min Rain = 0
KDO1 222249Z 02008KT 19/13 A3009 RMK A01 T01850127  RH  069%=      5-min Rain = 0
KDO1 222250Z 03006KT 19/13 A3009 RMK A01 T01850132  RH  071%=      5-min Rain = 0
KDO1 222251Z 04006KT 19/13 A3008 RMK A01 T01850133  RH  072%=      5-min Rain = 0
KDO1 222252Z 03007KT 19/13 A3008 RMK A01 T01850132  RH  071%=      5-min Rain = 0
KDO1 222253Z 03008KT 19/13 A3008 RMK A01 T01850134  RH  072%=      5-min Rain = 0
KDO1 222254Z 03007KT 18/13 A3008 RMK A01 T01840132  RH  072%=      5-min Rain = 0
KDO1 222255Z 03008KT 18/13 A3008 RMK A01 T01840131  RH  071%=      5-min Rain = 0
KDO1 222256Z 03009KT 18/13 A3008 RMK A01 T01840129  RH  070%=      5-min Rain = 0
KDO1 222257Z 03010KT 19/13 A3008 RMK A01 T01850130  RH  070%=      5-min Rain = 0
KDO1 222258Z 03010KT 19/13 A3007 RMK A01 T01850129  RH  070%=      5-min Rain = 0
KDO1 222259Z 02009KT 19/13 A3007 RMK A01 T01850130  RH  071%=      5-min Rain = 0
KDO1 222300Z 03010KT 19/13 A3007 RMK A01 T01850131  RH  071%=      5-min Rain = 0
KDO1 222301Z 03011KT 18/13 A3007 RMK A01 T01840131  RH  071%=      5-min Rain = 0
KDO1 222302Z 03011KT 18/13 A3006 RMK A01 T01840132  RH  071%=      5-min Rain = 0
KDO1 222303Z 03010KT 18/13 A3006 RMK A01 T01830131  RH  071%=      5-min Rain = 0
KDO1 222304Z 03014KT 18/13 A3005 RMK A01 T01830130  RH  071%=      5-min Rain = 0
KDO1 222305Z 03013KT 18/13 A3004 RMK A01 T01830129  RH  071%=      5-min Rain = 0
KDO1 222306Z 03014KT 18/13 A3004 RMK A01 T01830130  RH  071%=      5-min Rain = 0
KDO1 222307Z 03015G20KT 18/13 A3003 RMK A01 T01830130  RH  071%=      5-min Rain = 0
KDO1 222308Z 03016KT 18/13 A3003 RMK A01 T01830130  RH  071%=      5-min Rain = 0
KDO1 222309Z 03015G21KT 18/13 A3003 RMK A01 T01830130  RH  071%=      5-min Rain = 0
KDO1 222310Z 03016KT 18/13 A3003 RMK A01 T01830130  RH  071%=      5-min Rain = 0
KDO1 222311Z 03018KT 18/13 A3003 RMK A01 T01830129  RH  070%=      5-min Rain = 0
KDO1 222312Z 03014G19KT 18/13 A3003 RMK A01 T01830127  RH  070%=      5-min Rain = 0
KDO1 222313Z 03014KT 18/13 A3003 RMK A01 T01840128  RH  070%=      5-min Rain = 0
KDO1 222314Z 03012G18KT 18/13 A3003 RMK A01 T01840129  RH  070%=      5-min Rain = 0
KDO1 222315Z 03015KT 18/13 A3003 RMK A01 T01840127  RH  070%=      5-min Rain = 0
KDO1 222316Z 03014KT 18/13 A3003 RMK A01 T01830126  RH  069%=      5-min Rain = 0
KDO1 222317Z 03014KT 18/13 A3003 RMK A01 T01830127  RH  070%=      5-min Rain = 0
KDO1 222318Z 04014KT 18/13 A3003 RMK A01 T01830126  RH  069%=      5-min Rain = 0
KDO1 222319Z 04012KT 18/13 A3003 RMK A01 T01830128  RH  070%=      5-min Rain = 0
KDO1 222320Z 03012KT 18/13 A3003 RMK A01 T01830128  RH  070%=      5-min Rain = 0
KDO1 222321Z 03015KT 18/13 A3003 RMK A01 T01830127  RH  070%=      5-min Rain = 0
KDO1 222322Z 03014KT 18/13 A3003 RMK A01 T01830126  RH  069%=      5-min Rain = 0
KDO1 222323Z 03011G17KT 18/13 A3003 RMK A01 T01830126  RH  069%=      5-min Rain = 0
KDO1 222324Z 04012KT 18/13 A3003 RMK A01 T01830126  RH  069%=      5-min Rain = 0
KDO1 222325Z 04012G18KT 18/13 A3003 RMK A01 T01830126  RH  069%=      5-min Rain = 0
KDO1 222326Z 03015G20KT 18/13 A3003 RMK A01 T01840126  RH  069%=      5-min Rain = 0
KDO1 222327Z 03012KT 18/13 A3003 RMK A01 T01840125  RH  068%=      5-min Rain = 0
KDO1 222328Z 03012KT 18/13 A3003 RMK A01 T01840125  RH  068%=      5-min Rain = 0
KDO1 222329Z 03013KT 18/12 A3003 RMK A01 T01840124  RH  068%=      5-min Rain = 0
KDO1 222330Z 03014KT 19/12 A3003 RMK A01 T01850124  RH  067%=      5-min Rain = 0
KDO1 222331Z 03010KT 19/12 A3003 RMK A01 T01850123  RH  067%=      5-min Rain = 0
KDO1 222332Z 03012G18KT 19/12 A3003 RMK A01 T01850124  RH  067%=      5-min Rain = 0
KDO1 222333Z 02011KT 19/12 A3003 RMK A01 T01850124  RH  067%=      5-min Rain = 0
KDO1 222334Z 02012KT 19/12 A3003 RMK A01 T01850123  RH  067%=      5-min Rain = 0
KDO1 222335Z 02010KT 19/12 A3004 RMK A01 T01860124  RH  067%=      5-min Rain = 0
KDO1 222336Z 02009KT 19/12 A3004 RMK A01 T01860124  RH  067%=      5-min Rain = 0
KDO1 222337Z 02009KT 19/12 A3004 RMK A01 T01860123  RH  067%=      5-min Rain = 0
KDO1 222338Z 02007KT 19/12 A3004 RMK A01 T01860124  RH  067%=      5-min Rain = 0
KDO1 222339Z 02006KT 19/13 A3004 RMK A01 T01860125  RH  068%=      5-min Rain = 0
KDO1 222340Z 02009KT 19/12 A3004 RMK A01 T01850124  RH  067%=      5-min Rain = 0
KDO1 222341Z 01008KT 19/12 A3005 RMK A01 T01860122  RH  066%=      5-min Rain = 0
KDO1 222342Z 02007KT 19/12 A3005 RMK A01 T01850122  RH  066%=      5-min Rain = 0
KDO1 222343Z 02004KT 19/12 A3005 RMK A01 T01860122  RH  067%=      5-min Rain = 0
KDO1 222344Z 01006KT 19/12 A3005 RMK A01 T01860123  RH  067%=      5-min Rain = 0
KDO1 222345Z 02009KT 19/12 A3005 RMK A01 T01860122  RH  066%=      5-min Rain = 0
KDO1 222346Z 01008KT 19/12 A3005 RMK A01 T01860120  RH  066%=      5-min Rain = 0
KDO1 222347Z 02007KT 19/12 A3005 RMK A01 T01860121  RH  066%=      5-min Rain = 0
KDO1 222348Z 01008KT 19/12 A3005 RMK A01 T01860121  RH  066%=      5-min Rain = 0
KDO1 222349Z 00008KT 19/12 A3005 RMK A01 T01860121  RH  066%=      5-min Rain = 0
KDO1 222350Z 36009KT 19/12 A3005 RMK A01 T01850120  RH  066%=      5-min Rain = 0
KDO1 222351Z 01008KT 19/12 A3005 RMK A01 T01850119  RH  065%=      5-min Rain = 0
KDO1 222352Z 01007KT 19/12 A3005 RMK A01 T01850119  RH  065%=      5-min Rain = 0
KDO1 222353Z 01008KT 19/12 A3005 RMK A01 T01850119  RH  065%=      5-min Rain = 0
KDO1 222354Z 01006KT 19/12 A3005 RMK A01 T01850118  RH  065%=      5-min Rain = 0
KDO1 222355Z 02006KT 19/12 A3005 RMK A01 T01850119  RH  066%=      5-min Rain = 0
KDO1 222356Z 02006KT 19/12 A3005 RMK A01 T01850119  RH  066%=      5-min Rain = 0
KDO1 222357Z 02008KT 18/12 A3005 RMK A01 T01840119  RH  066%=      5-min Rain = 0
KDO1 222358Z 01008KT 18/12 A3005 RMK A01 T01840118  RH  065%=      5-min Rain = 0
KDO1 222359Z 01009KT 18/12 A3005 RMK A01 T01840118  RH  065%=      5-min Rain = 0
KDO1 230000Z 02010KT 18/12 A3005 RMK A01 T01840117  RH  065%=      5-min Rain = 0
KDO1 230001Z 01008KT 18/12 A3005 RMK A01 T01840117  RH  065%=      5-min Rain = 0
KDO1 230002Z 01010KT 18/12 A3005 RMK A01 T01840117  RH  065%=      5-min Rain = 0
KDO1 230003Z 01012G17KT 18/12 A3004 RMK A01 T01830117  RH  065%=      5-min Rain = 0
KDO1 230004Z 00010KT 18/12 A3004 RMK A01 T01830115  RH  064%=      5-min Rain = 0
KDO1 230005Z 01010KT 18/12 A3004 RMK A01 T01830117  RH  065%=      5-min Rain = 0
KDO1 230006Z 01010KT 18/12 A3004 RMK A01 T01830116  RH  065%=      5-min Rain = 0
KDO1 230007Z 00008KT 18/12 A3004 RMK A01 T01830116  RH  065%=      5-min Rain = 0
KDO1 230008Z 01009KT 18/12 A3004 RMK A01 T01830116  RH  065%=      5-min Rain = 0
KDO1 230009Z 01009KT 18/12 A3004 RMK A01 T01830116  RH  065%=      5-min Rain = 0
KDO1 230010Z 01010KT 18/12 A3005 RMK A01 T01820115  RH  065%=      5-min Rain = 0
KDO1 230011Z 01008KT 18/11 A3005 RMK A01 T01820114  RH  064%=      5-min Rain = 0
KDO1 230012Z 01008KT 18/12 A3005 RMK A01 T01820115  RH  065%=      5-min Rain = 0
KDO1 230013Z 02006KT 18/11 A3005 RMK A01 T01830114  RH  064%=      5-min Rain = 0
KDO1 230014Z 03005KT 18/12 A3006 RMK A01 T01830115  RH  064%=      5-min Rain = 0
KDO1 230015Z 04004KT 18/11 A3006 RMK A01 T01830114  RH  064%=      5-min Rain = 0
KDO1 230016Z 05005KT 18/12 A3007 RMK A01 T01830115  RH  065%=      5-min Rain = 0
KDO1 230017Z 03005KT 18/12 A3007 RMK A01 T01830115  RH  065%=      5-min Rain = 0
KDO1 230018Z 05002KT 18/12 A3007 RMK A01 T01830115  RH  065%=      5-min Rain = 0
KDO1 230019Z 05003KT 18/12 A3008 RMK A01 T01830115  RH  065%=      5-min Rain = 0
KDO1 230020Z 10002KT 18/11 A3008 RMK A01 T01830114  RH  064%=      5-min Rain = 0
KDO1 230021Z 13002KT 18/12 A3008 RMK A01 T01830116  RH  065%=      5-min Rain = 0
KDO1 230022Z 13001KT 18/12 A3008 RMK A01 T01830118  RH  066%=      5-min Rain = 0
KDO1 230023Z 08002KT 18/12 A3009 RMK A01 T01820118  RH  066%=      5-min Rain = 0
KDO1 230024Z 11002KT 18/12 A3009 RMK A01 T01820117  RH  066%=      5-min Rain = 0
KDO1 230025Z 12002KT 18/12 A3008 RMK A01 T01820116  RH  065%=      5-min Rain = 0
KDO1 230026Z 07001KT 18/12 A3008 RMK A01 T01820117  RH  066%=      5-min Rain = 0
KDO1 230027Z 06002KT 18/12 A3008 RMK A01 T01810116  RH  065%=      5-min Rain = 0
KDO1 230028Z 06002KT 18/12 A3008 RMK A01 T01810115  RH  065%=      5-min Rain = 0
KDO1 230029Z 06003KT 18/12 A3008 RMK A01 T01820118  RH  066%=      5-min Rain = 0
KDO1 230030Z 07003KT 18/12 A3008 RMK A01 T01810118  RH  067%=      5-min Rain = 0
KDO1 230031Z 06004KT 18/12 A3008 RMK A01 T01810118  RH  067%=      5-min Rain = 0
KDO1 230032Z 06004KT 18/12 A3008 RMK A01 T01810117  RH  066%=      5-min Rain = 0
KDO1 230033Z 06003KT 18/12 A3008 RMK A01 T01810115  RH  065%=      5-min Rain = 0
KDO1 230034Z 07004KT 18/12 A3008 RMK A01 T01810118  RH  067%=      5-min Rain = 0
KDO1 230035Z 08004KT 18/12 A3008 RMK A01 T01810118  RH  066%=      5-min Rain = 0
KDO1 230036Z 07003KT 18/12 A3009 RMK A01 T01810117  RH  066%=      5-min Rain = 0
KDO1 230037Z 07003KT 18/12 A3009 RMK A01 T01810119  RH  067%=      5-min Rain = 0
KDO1 230038Z 07003KT 18/12 A3008 RMK A01 T01810119  RH  067%=      5-min Rain = 0
KDO1 230039Z 05003KT 18/12 A3008 RMK A01 T01800121  RH  068%=      5-min Rain = 0
KDO1 230040Z 06003KT 18/12 A3008 RMK A01 T01800122  RH  069%=      5-min Rain = 0
KDO1 230041Z 05003KT 18/12 A3008 RMK A01 T01790123  RH  069%=      5-min Rain = 0
KDO1 230042Z 03003KT 18/12 A3008 RMK A01 T01790124  RH  070%=      5-min Rain = 0
KDO1 230043Z 03004KT 18/12 A3008 RMK A01 T01780122  RH  070%=      5-min Rain = 0
KDO1 230044Z 02004KT 18/12 A3008 RMK A01 T01780124  RH  070%=      5-min Rain = 0
KDO1 230045Z 02005KT 18/12 A3008 RMK A01 T01780123  RH  070%=      5-min Rain = 0
KDO1 230046Z 02004KT 18/12 A3007 RMK A01 T01780123  RH  070%=      5-min Rain = 0
KDO1 230047Z 03004KT 18/12 A3007 RMK A01 T01780123  RH  070%=      5-min Rain = 0
KDO1 230048Z 03005KT 18/12 A3008 RMK A01 T01770123  RH  071%=      5-min Rain = 0
KDO1 230049Z 02004KT 18/12 A3008 RMK A01 T01770124  RH  071%=      5-min Rain = 0
KDO1 230050Z 02004KT 18/13 A3007 RMK A01 T01770125  RH  071%=      5-min Rain = 0
KDO1 230051Z 02004KT 18/13 A3007 RMK A01 T01760125  RH  072%=      5-min Rain = 0
KDO1 230052Z 02005KT 18/13 A3007 RMK A01 T01760126  RH  073%=      5-min Rain = 0
KDO1 230053Z 02005KT 18/13 A3007 RMK A01 T01750126  RH  073%=      5-min Rain = 0
KDO1 230054Z 02005KT 18/13 A3007 RMK A01 T01750126  RH  073%=      5-min Rain = 0
KDO1 230055Z 01005KT 17/13 A3007 RMK A01 T01740126  RH  073%=      5-min Rain = 0
KDO1 230056Z 01006KT 17/13 A3007 RMK A01 T01740125  RH  073%=      5-min Rain = 0
KDO1 230057Z 01006KT 17/12 A3007 RMK A01 T01740124  RH  073%=      5-min Rain = 0
KDO1 230058Z 01006KT 17/12 A3007 RMK A01 T01740124  RH  073%=      5-min Rain = 0
KDO1 230059Z 01005KT 17/13 A3007 RMK A01 T01740125  RH  073%=      5-min Rain = 0
KDO1 230100Z 02007KT 17/13 A3006 RMK A01 T01740125  RH  073%=      5-min Rain = 0
KDO1 230101Z 02006KT 17/12 A3006 RMK A01 T01730124  RH  073%=      5-min Rain = 0
KDO1 230102Z 01005KT 17/13 A3006 RMK A01 T01730125  RH  073%=      5-min Rain = 0
KDO1 230103Z 02006KT 17/13 A3006 RMK A01 T01730125  RH  073%=      5-min Rain = 0
KDO1 230104Z 02006KT 17/12 A3006 RMK A01 T01730124  RH  073%=      5-min Rain = 0
KDO1 230105Z 01005KT 17/13 A3006 RMK A01 T01730125  RH  074%=      5-min Rain = 0
KDO1 230106Z 02005KT 17/13 A3006 RMK A01 T01720125  RH  074%=      5-min Rain = 0
KDO1 230107Z 01006KT 17/13 A3006 RMK A01 T01720125  RH  074%=      5-min Rain = 0
KDO1 230108Z 02006KT 17/13 A3006 RMK A01 T01720126  RH  074%=      5-min Rain = 0
KDO1 230109Z 02006KT 17/13 A3007 RMK A01 T01720125  RH  074%=      5-min Rain = 0
KDO1 230110Z 02006KT 17/13 A3007 RMK A01 T01720125  RH  074%=      5-min Rain = 0
KDO1 230111Z 02005KT 17/13 A3007 RMK A01 T01720125  RH  074%=      5-min Rain = 0
KDO1 230112Z 01005KT 17/12 A3007 RMK A01 T01710124  RH  074%=      5-min Rain = 0
KDO1 230113Z 01006KT 17/13 A3007 RMK A01 T01710125  RH  074%=      5-min Rain = 0
KDO1 230114Z 01005KT 17/13 A3007 RMK A01 T01710126  RH  074%=      5-min Rain = 0
KDO1 230115Z 01005KT 17/13 A3007 RMK A01 T01710125  RH  074%=      5-min Rain = 0
KDO1 230116Z 01006KT 17/12 A3007 RMK A01 T01710124  RH  074%=      5-min Rain = 0
KDO1 230117Z 01006KT 17/12 A3007 RMK A01 T01710124  RH  074%=      5-min Rain = 0
KDO1 230118Z 01004KT 17/13 A3007 RMK A01 T01710125  RH  074%=      5-min Rain = 0
KDO1 230119Z 00005KT 17/13 A3007 RMK A01 T01710125  RH  075%=      5-min Rain = 0
KDO1 230120Z 36004KT 17/13 A3007 RMK A01 T01700125  RH  075%=      5-min Rain = 0
KDO1 230121Z 00004KT 17/13 A3007 RMK A01 T01700126  RH  075%=      5-min Rain = 0
KDO1 230122Z 35004KT 17/13 A3007 RMK A01 T01700126  RH  075%=      5-min Rain = 0
KDO1 230123Z 35003KT 17/12 A3008 RMK A01 T01700124  RH  075%=      5-min Rain = 0
KDO1 230124Z 33003KT 17/13 A3008 RMK A01 T01700125  RH  075%=      5-min Rain = 0
KDO1 230125Z 33003KT 17/13 A3008 RMK A01 T01700125  RH  075%=      5-min Rain = 0
KDO1 230126Z 32003KT 17/13 A3008 RMK A01 T01700125  RH  075%=      5-min Rain = 0
KDO1 230127Z 30003KT 17/13 A3008 RMK A01 T01690125  RH  075%=      5-min Rain = 0
KDO1 230128Z 29003KT 17/13 A3009 RMK A01 T01690125  RH  075%=      5-min Rain = 0
KDO1 230129Z 27003KT 17/12 A3009 RMK A01 T01690124  RH  075%=      5-min Rain = 0
KDO1 230130Z 28003KT 17/13 A3009 RMK A01 T01690125  RH  075%=      5-min Rain = 0
KDO1 230131Z 26004KT 17/13 A3009 RMK A01 T01690126  RH  076%=      5-min Rain = 0
KDO1 230132Z 27003KT 17/13 A3009 RMK A01 T01680127  RH  076%=      5-min Rain = 0
KDO1 230133Z 27004KT 17/13 A3009 RMK A01 T01680127  RH  077%=      5-min Rain = 0
KDO1 230134Z 27004KT 17/13 A3009 RMK A01 T01670127  RH  077%=      5-min Rain = 0
KDO1 230135Z 26004KT 17/13 A3009 RMK A01 T01670128  RH  078%=      5-min Rain = 0
KDO1 230136Z 26004KT 17/13 A3009 RMK A01 T01660127  RH  078%=      5-min Rain = 0
KDO1 230137Z 27004KT 17/13 A3009 RMK A01 T01660128  RH  078%=      5-min Rain = 0
KDO1 230138Z 28005KT 17/13 A3009 RMK A01 T01650130  RH  079%=      5-min Rain = 0
KDO1 230139Z 28004KT 17/13 A3009 RMK A01 T01650131  RH  080%=      5-min Rain = 0
KDO1 230140Z 29005KT 16/13 A3009 RMK A01 T01640130  RH  080%=      5-min Rain = 0
KDO1 230141Z 29003KT 16/13 A3009 RMK A01 T01640128  RH  079%=      5-min Rain = 0
KDO1 230142Z 30004KT 16/13 A3009 RMK A01 T01640128  RH  079%=      5-min Rain = 0
KDO1 230143Z 31004KT 16/13 A3009 RMK A01 T01640127  RH  079%=      5-min Rain = 0
KDO1 230144Z 31004KT 16/13 A3009 RMK A01 T01640127  RH  079%=      5-min Rain = 0
KDO1 230145Z 32004KT 16/13 A3009 RMK A01 T01640128  RH  079%=      5-min Rain = 0
KDO1 230146Z 32004KT 16/13 A3009 RMK A01 T01630129  RH  080%=      5-min Rain = 0
KDO1 230147Z 31004KT 16/13 A3009 RMK A01 T01630128  RH  080%=      5-min Rain = 0
KDO1 230148Z 31004KT 16/13 A3009 RMK A01 T01620128  RH  080%=      5-min Rain = 0
KDO1 230149Z 30005KT 16/13 A3009 RMK A01 T01630128  RH  080%=      5-min Rain = 0
KDO1 230150Z 31004KT 16/13 A3009 RMK A01 T01620128  RH  080%=      5-min Rain = 0
KDO1 230151Z 31005KT 16/13 A3009 RMK A01 T01620128  RH  080%=      5-min Rain = 0
KDO1 230152Z 31005KT 16/13 A3009 RMK A01 T01620128  RH  081%=      5-min Rain = 0
KDO1 230153Z 30005KT 16/13 A3009 RMK A01 T01610129  RH  081%=      5-min Rain = 0
KDO1 230154Z 31006KT 16/13 A3009 RMK A01 T01600129  RH  082%=      5-min Rain = 0
KDO1 230155Z 31005KT 16/13 A3009 RMK A01 T01600129  RH  082%=      5-min Rain = 0
KDO1 230156Z 30005KT 16/13 A3009 RMK A01 T01600130  RH  083%=      5-min Rain = 0
KDO1 230157Z 31004KT 16/13 A3009 RMK A01 T01590130  RH  083%=      5-min Rain = 0
KDO1 230158Z 30006KT 16/13 A3009 RMK A01 T01590130  RH  083%=      5-min Rain = 0
KDO1 230159Z 31006KT 16/13 A3009 RMK A01 T01590131  RH  084%=      5-min Rain = 0
KDO1 230200Z 31006KT 16/13 A3009 RMK A01 T01580132  RH  084%=      5-min Rain = 0
KDO1 230201Z 32007KT 16/13 A3009 RMK A01 T01580132  RH  085%=      5-min Rain = 0
KDO1 230202Z 32008KT 16/13 A3009 RMK A01 T01570133  RH  086%=      5-min Rain = 0
KDO1 230203Z 33008KT 16/13 A3009 RMK A01 T01570134  RH  086%=      5-min Rain = 0
KDO1 230204Z 33009KT 16/14 A3009 RMK A01 T01560135  RH  087%=      5-min Rain = 0
KDO1 230205Z 33009KT 16/14 A3008 RMK A01 T01550135  RH  088%=      5-min Rain = 0
KDO1 230206Z 33009KT 16/14 A3008 RMK A01 T01550136  RH  088%=      5-min Rain = 0
KDO1 230207Z 33010KT 15/14 A3008 RMK A01 T01540136  RH  089%=      5-min Rain = 0
KDO1 230208Z 33011KT 15/14 A3008 RMK A01 T01530136  RH  089%=      5-min Rain = 0
KDO1 230209Z 33010KT 15/14 A3008 RMK A01 T01530135  RH  090%=      5-min Rain = 0.01
KDO1 230210Z 33010KT 15/14 A3008 RMK A01 T01520136  RH  090%=      5-min Rain = 0
KDO1 230211Z 33010KT 15/14 A3008 RMK A01 T01520135  RH  090%=      5-min Rain = 0
KDO1 230212Z 34010KT 15/14 A3008 RMK A01 T01510135  RH  090%=      5-min Rain = 0
KDO1 230213Z 34010KT 15/14 A3008 RMK A01 T01510135  RH  090%=      5-min Rain = 0
KDO1 230214Z 34009KT 15/13 A3008 RMK A01 T01510134  RH  089%=      5-min Rain = 0
KDO1 230215Z 33010KT 15/13 A3008 RMK A01 T01510134  RH  089%=      5-min Rain = 0
KDO1 230216Z 33010KT 15/13 A3008 RMK A01 T01510132  RH  088%=      5-min Rain = 0
KDO1 230217Z 34008KT 15/13 A3008 RMK A01 T01510132  RH  088%=      5-min Rain = 0
KDO1 230218Z 34009KT 15/13 A3008 RMK A01 T01520133  RH  089%=      5-min Rain = 0
KDO1 230219Z 33008KT 15/13 A3007 RMK A01 T01520133  RH  089%=      5-min Rain = 0
KDO1 230220Z 34009KT 15/13 A3007 RMK A01 T01510133  RH  089%=      5-min Rain = 0
KDO1 230221Z 34008KT 15/13 A3007 RMK A01 T01510133  RH  089%=      5-min Rain = 0
KDO1 230222Z 34009KT 15/13 A3007 RMK A01 T01510133  RH  089%=      5-min Rain = 0.01
KDO1 230223Z 34008KT 15/13 A3007 RMK A01 T01510134  RH  089%=      5-min Rain = 0
KDO1 230224Z 35008KT 15/13 A3007 RMK A01 T01500134  RH  090%=      5-min Rain = 0
KDO1 230225Z 35010KT 15/13 A3007 RMK A01 T01500134  RH  090%=      5-min Rain = 0
KDO1 230226Z 36009KT 15/13 A3006 RMK A01 T01500134  RH  091%=      5-min Rain = 0
KDO1 230227Z 35009KT 15/14 A3006 RMK A01 T01490135  RH  091%=      5-min Rain = 0
KDO1 230228Z 36010KT 15/14 A3006 RMK A01 T01490135  RH  091%=      5-min Rain = 0
KDO1 230229Z 01008KT 15/14 A3005 RMK A01 T01490136  RH  092%=      5-min Rain = 0
KDO1 230230Z 01010KT 15/14 A3005 RMK A01 T01480136  RH  092%=      5-min Rain = 0
KDO1 230231Z 00010KT 15/14 A3005 RMK A01 T01480136  RH  093%=      5-min Rain = 0
KDO1 230232Z 00011KT 15/14 A3004 RMK A01 T01470136  RH  093%=      5-min Rain = 0
KDO1 230233Z 00010KT 15/14 A3004 RMK A01 T01470136  RH  093%=      5-min Rain = 0
KDO1 230234Z 00011KT 15/14 A3004 RMK A01 T01470136  RH  093%=      5-min Rain = 0
KDO1 230235Z 00010KT 15/14 A3004 RMK A01 T01470137  RH  093%=      5-min Rain = 0
KDO1 230236Z 00009KT 15/14 A3004 RMK A01 T01470137  RH  094%=      5-min Rain = 0
KDO1 230237Z 00010KT 15/14 A3004 RMK A01 T01460137  RH  094%=      5-min Rain = 0
KDO1 230238Z 36009KT 15/14 A3004 RMK A01 T01460137  RH  095%=      5-min Rain = 0
KDO1 230239Z 00011KT 15/14 A3004 RMK A01 T01460137  RH  095%=      5-min Rain = 0
KDO1 230240Z 01010KT 15/14 A3004 RMK A01 T01460138  RH  095%=      5-min Rain = 0
KDO1 230241Z 35009KT 15/14 A3004 RMK A01 T01460138  RH  095%=      5-min Rain = 0
KDO1 230242Z 00010KT 15/14 A3004 RMK A01 T01460138  RH  095%=      5-min Rain = 0.01
KDO1 230243Z 00010KT 15/14 A3004 RMK A01 T01460138  RH  095%=      5-min Rain = 0
KDO1 230244Z 00009KT 15/14 A3004 RMK A01 T01460137  RH  095%=      5-min Rain = 0
KDO1 230245Z 00010KT 15/14 A3004 RMK A01 T01460137  RH  095%=      5-min Rain = 0
KDO1 230246Z 00010KT 15/14 A3004 RMK A01 T01460137  RH  095%=      5-min Rain = 0
KDO1 230247Z 01010KT 15/14 A3004 RMK A01 T01460138  RH  095%=      5-min Rain = 0
KDO1 230248Z 00010KT 15/14 A3004 RMK A01 T01460138  RH  095%=      5-min Rain = 0
KDO1 230249Z 36010KT 15/14 A3004 RMK A01 T01460138  RH  095%=      5-min Rain = 0
KDO1 230250Z 00009KT 15/14 A3004 RMK A01 T01460138  RH  095%=      5-min Rain = 0
KDO1 230251Z 00010KT 15/14 A3004 RMK A01 T01460138  RH  095%=      5-min Rain = 0
KDO1 230252Z 01008G13KT 15/14 A3004 RMK A01 T01460137  RH  095%=      5-min Rain = 0
KDO1 230253Z 01010KT 15/14 A3004 RMK A01 T01460137  RH  094%=      5-min Rain = 0
KDO1 230254Z 01011KT 15/14 A3004 RMK A01 T01460137  RH  094%=      5-min Rain = 0
KDO1 230255Z 01009G14KT 15/14 A3004 RMK A01 T01460137  RH  094%=      5-min Rain = 0
KDO1 230256Z 36010KT 15/14 A3004 RMK A01 T01460137  RH  094%=      5-min Rain = 0
KDO1 230257Z 36009KT 15/14 A3004 RMK A01 T01460137  RH  094%=      5-min Rain = 0
KDO1 230258Z 01010KT 15/14 A3004 RMK A01 T01460137  RH  094%=      5-min Rain = 0
KDO1 230259Z 36009KT 15/14 A3004 RMK A01 T01460137  RH  094%=      5-min Rain = 0
KDO1 230300Z 00010KT 15/14 A3004 RMK A01 T01460137  RH  094%=      5-min Rain = 0
KDO1 230301Z 36010G15KT 15/14 A3005 RMK A01 T01460137  RH  094%=      5-min Rain = 0
KDO1 230302Z 36010G15KT 15/14 A3005 RMK A01 T01460137  RH  094%=      5-min Rain = 0
KDO1 230303Z 00009KT 15/14 A3005 RMK A01 T01460137  RH  094%=      5-min Rain = 0
KDO1 230304Z 36007KT 15/14 A3005 RMK A01 T01460137  RH  094%=      5-min Rain = 0
KDO1 230305Z 36010KT 15/14 A3005 RMK A01 T01460137  RH  094%=      5-min Rain = 0
KDO1 230306Z 36009KT 15/14 A3005 RMK A01 T01460137  RH  094%=      5-min Rain = 0
KDO1 230307Z 00008KT 15/14 A3005 RMK A01 T01460137  RH  094%=      5-min Rain = 0
KDO1 230308Z 00007KT 15/14 A3005 RMK A01 T01460137  RH  094%=      5-min Rain = 0
KDO1 230309Z 36008KT 15/14 A3005 RMK A01 T01460137  RH  094%=      5-min Rain = 0
KDO1 230310Z 36009KT 15/14 A3005 RMK A01 T01460137  RH  094%=      5-min Rain = 0
KDO1 230311Z 00009KT 15/14 A3005 RMK A01 T01470137  RH  094%=      5-min Rain = 0
KDO1 230312Z 00009KT 15/14 A3005 RMK A01 T01460137  RH  094%=      5-min Rain = 0
KDO1 230313Z 36010KT 15/14 A3005 RMK A01 T01460137  RH  094%=      5-min Rain = 0
KDO1 230314Z 36009KT 15/14 A3005 RMK A01 T01460136  RH  093%=      5-min Rain = 0
KDO1 230315Z 35008KT 15/14 A3005 RMK A01 T01470136  RH  093%=      5-min Rain = 0
KDO1 230316Z 00009KT 15/14 A3005 RMK A01 T01470137  RH  093%=      5-min Rain = 0
KDO1 230317Z 00010KT 15/14 A3005 RMK A01 T01470136  RH  093%=      5-min Rain = 0
KDO1 230318Z 36009KT 15/14 A3005 RMK A01 T01470137  RH  093%=      5-min Rain = 0
KDO1 230319Z 00010KT 15/14 A3005 RMK A01 T01470137  RH  093%=      5-min Rain = 0
KDO1 230320Z 00010KT 15/14 A3005 RMK A01 T01470136  RH  093%=      5-min Rain = 0
KDO1 230321Z 00010KT 15/14 A3005 RMK A01 T01470136  RH  093%=      5-min Rain = 0
KDO1 230322Z 00010KT 15/14 A3005 RMK A01 T01470135  RH  092%=      5-min Rain = 0
KDO1 230323Z 00011KT 15/13 A3004 RMK A01 T01470134  RH  092%=      5-min Rain = 0
KDO1 230324Z 00010KT 15/14 A3004 RMK A01 T01480135  RH  092%=      5-min Rain = 0
KDO1 230325Z 00009KT 15/14 A3005 RMK A01 T01470135  RH  092%=      5-min Rain = 0
KDO1 230326Z 01008KT 15/14 A3005 RMK A01 T01480135  RH  092%=      5-min Rain = 0
KDO1 230327Z 01008KT 15/14 A3005 RMK A01 T01480135  RH  092%=      5-min Rain = 0
KDO1 230328Z 01007KT 15/14 A3005 RMK A01 T01480135  RH  092%=      5-min Rain = 0
KDO1 230329Z 01010KT 15/13 A3005 RMK A01 T01480134  RH  092%=      5-min Rain = 0
KDO1 230330Z 00010KT 15/13 A3005 RMK A01 T01480134  RH  091%=      5-min Rain = 0
KDO1 230331Z 01010KT 15/13 A3005 RMK A01 T01480133  RH  091%=      5-min Rain = 0
KDO1 230332Z 01008KT 15/13 A3005 RMK A01 T01480133  RH  091%=      5-min Rain = 0
KDO1 230333Z 01010KT 15/13 A3005 RMK A01 T01480133  RH  091%=      5-min Rain = 0
KDO1 230334Z 02009KT 15/13 A3005 RMK A01 T01480133  RH  090%=      5-min Rain = 0
KDO1 230335Z 01009KT 15/13 A3006 RMK A01 T01480132  RH  090%=      5-min Rain = 0
KDO1 230336Z 01007KT 15/13 A3006 RMK A01 T01490133  RH  090%=      5-min Rain = 0
KDO1 230337Z 02008KT 15/13 A3006 RMK A01 T01490132  RH  090%=      5-min Rain = 0
KDO1 230338Z 01007KT 15/13 A3007 RMK A01 T01490132  RH  090%=      5-min Rain = 0
KDO1 230339Z 02007KT 15/13 A3007 RMK A01 T01490132  RH  090%=      5-min Rain = 0
KDO1 230340Z 02005KT 15/13 A3008 RMK A01 T01490132  RH  090%=      5-min Rain = 0
KDO1 230341Z 04005KT 15/13 A3008 RMK A01 T01490132  RH  090%=      5-min Rain = 0
KDO1 230342Z 05004KT 15/13 A3009 RMK A01 T01490132  RH  089%=      5-min Rain = 0
KDO1 230343Z 05003KT 15/13 A3009 RMK A01 T01490133  RH  090%=      5-min Rain = 0
KDO1 230344Z 07003KT 15/13 A301 RMK A01 T01490133  RH  090%=      5-min Rain = 0
KDO1 230345Z 07004KT 15/13 A301 RMK A01 T01490134  RH  091%=      5-min Rain = 0
KDO1 230346Z 08003KT 15/13 A301 RMK A01 T01490134  RH  091%=      5-min Rain = 0
KDO1 230347Z 06003KT 15/14 A301 RMK A01 T01490135  RH  091%=      5-min Rain = 0
KDO1 230348Z 06002KT 15/14 A301 RMK A01 T01490135  RH  091%=      5-min Rain = 0
KDO1 230349Z 06002KT 15/14 A301 RMK A01 T01490135  RH  091%=      5-min Rain = 0
KDO1 230350Z 06002KT 15/14 A301 RMK A01 T01490135  RH  091%=      5-min Rain = 0
KDO1 230351Z 05002KT 15/14 A301 RMK A01 T01490135  RH  091%=      5-min Rain = 0
KDO1 230352Z 06001KT 15/14 A301 RMK A01 T01490135  RH  091%=      5-min Rain = 0
KDO1 230353Z 06000KT 15/14 A301 RMK A01 T01490135  RH  091%=      5-min Rain = 0
KDO1 230354Z 09000KT 15/14 A301 RMK A01 T01490135  RH  091%=      5-min Rain = 0
KDO1 230355Z 11001KT 15/14 A301 RMK A01 T01490135  RH  091%=      5-min Rain = 0
KDO1 230356Z 13000KT 15/14 A301 RMK A01 T01490136  RH  092%=      5-min Rain = 0
KDO1 230357Z 11000KT 15/14 A301 RMK A01 T01490136  RH  092%=      5-min Rain = 0
KDO1 230358Z 07002KT 15/14 A301 RMK A01 T01490137  RH  092%=      5-min Rain = 0
KDO1 230359Z 04002KT 15/14 A301 RMK A01 T01490137  RH  092%=      5-min Rain = 0
KDO1 230400Z 04003KT 15/14 A3009 RMK A01 T01490137  RH  092%=      5-min Rain = 0
KDO1 230401Z 02005KT 15/14 A3009 RMK A01 T01490137  RH  092%=      5-min Rain = 0.01
KDO1 230402Z 02005KT 15/14 A3009 RMK A01 T01490137  RH  093%=      5-min Rain = 0
KDO1 230403Z 02004KT 15/14 A3009 RMK A01 T01490138  RH  094%=      5-min Rain = 0.01
KDO1 230404Z 01005KT 15/14 A3009 RMK A01 T01480138  RH  094%=      5-min Rain = 0
KDO1 230405Z 01004KT 15/14 A3009 RMK A01 T01470138  RH  094%=      5-min Rain = 0.01
KDO1 230406Z 36003KT 15/14 A3009 RMK A01 T01470137  RH  094%=      5-min Rain = 0
KDO1 230407Z 34002KT 15/14 A3009 RMK A01 T01470139  RH  095%=      5-min Rain = 0.01
KDO1 230408Z 32002KT 15/14 A3009 RMK A01 T01470140  RH  096%=      5-min Rain = 0
KDO1 230409Z 30002KT 15/14 A3009 RMK A01 T01460141  RH  097%=      5-min Rain = 0.01
KDO1 230410Z 29003KT 15/14 A3009 RMK A01 T01450142  RH  097%=      5-min Rain = 0
KDO1 230411Z 28004KT 15/14 A3009 RMK A01 T01450142  RH  099%=      5-min Rain = 0
KDO1 230412Z 28005KT 14/14 A3009 RMK A01 T01440143  RH  099%=      5-min Rain = 0.01
KDO1 230413Z 29005KT 14/14 A3009 RMK A01 T01440144  RH  100%=      5-min Rain = 0
KDO1 230414Z 30006KT 14/14 A3009 RMK A01 T01430143  RH  100%=      5-min Rain = 0
KDO1 230415Z 30006KT 14/14 A3009 RMK A01 T01430143  RH  100%=      5-min Rain = 0.01
KDO1 230416Z 31006KT 14/14 A3009 RMK A01 T01430142  RH  099%=      5-min Rain = 0
KDO1 230417Z 32007KT 14/14 A3009 RMK A01 T01430142  RH  099%=      5-min Rain = 0
KDO1 230418Z 33007KT 14/14 A3009 RMK A01 T01430142  RH  100%=      5-min Rain = 0
KDO1 230419Z 34007KT 14/14 A3009 RMK A01 T01430143  RH  100%=      5-min Rain = 0.01
KDO1 230420Z 35008KT 14/14 A3009 RMK A01 T01430143  RH  100%=      5-min Rain = 0
KDO1 230421Z 35008KT 14/14 A3009 RMK A01 T01430142  RH  099%=      5-min Rain = 0
KDO1 230422Z 36008KT 14/14 A3008 RMK A01 T01430142  RH  099%=      5-min Rain = 0
KDO1 230423Z 00009KT 14/14 A3008 RMK A01 T01430142  RH  099%=      5-min Rain = 0
KDO1 230424Z 00011KT 14/14 A3008 RMK A01 T01430140  RH  098%=      5-min Rain = 0.01
KDO1 230425Z 01012KT 14/14 A3008 RMK A01 T01440138  RH  096%=      5-min Rain = 0
KDO1 230426Z 00010KT 14/14 A3008 RMK A01 T01440138  RH  096%=      5-min Rain = 0
KDO1 230427Z 01011KT 14/14 A3008 RMK A01 T01440138  RH  096%=      5-min Rain = 0
KDO1 230428Z 02011KT 14/14 A3008 RMK A01 T01440137  RH  096%=      5-min Rain = 0.01
KDO1 230429Z 02010KT 14/14 A3008 RMK A01 T01440137  RH  096%=      5-min Rain = 0
KDO1 230430Z 02011KT 14/14 A3008 RMK A01 T01440138  RH  096%=      5-min Rain = 0
KDO1 230431Z 02010KT 14/14 A3008 RMK A01 T01440138  RH  096%=      5-min Rain = 0
KDO1 230432Z 02011KT 14/14 A3008 RMK A01 T01440138  RH  096%=      5-min Rain = 0
KDO1 230433Z 03010KT 14/14 A3008 RMK A01 T01440138  RH  096%=      5-min Rain = 0.01
KDO1 230434Z 03008KT 14/14 A3008 RMK A01 T01440139  RH  097%=      5-min Rain = 0
KDO1 230435Z 03008KT 14/14 A3009 RMK A01 T01440139  RH  097%=      5-min Rain = 0
KDO1 230436Z 02006KT 14/14 A3009 RMK A01 T01430140  RH  098%=      5-min Rain = 0
KDO1 230437Z 02005KT 14/14 A3009 RMK A01 T01430140  RH  098%=      5-min Rain = 0.01
KDO1 230438Z 02005KT 14/14 A3009 RMK A01 T01420140  RH  099%=      5-min Rain = 0
KDO1 230439Z 03006KT 14/14 A3009 RMK A01 T01430141  RH  099%=      5-min Rain = 0
KDO1 230440Z 02005KT 14/14 A3009 RMK A01 T01430141  RH  099%=      5-min Rain = 0
KDO1 230441Z 01006KT 14/14 A3009 RMK A01 T01430141  RH  099%=      5-min Rain = 0
KDO1 230442Z 02005KT 14/14 A3009 RMK A01 T01420140  RH  099%=      5-min Rain = 0
KDO1 230443Z 01004KT 14/14 A3009 RMK A01 T01420141  RH  099%=      5-min Rain = 0
KDO1 230444Z 02006KT 14/14 A3009 RMK A01 T01420141  RH  099%=      5-min Rain = 0
KDO1 230445Z 02005KT 14/14 A3009 RMK A01 T01420142  RH  099%=      5-min Rain = 0
KDO1 230446Z 03004KT 14/14 A3009 RMK A01 T01430142  RH  099%=      5-min Rain = 0.01
KDO1 230447Z 03004KT 14/14 A3009 RMK A01 T01430142  RH  100%=      5-min Rain = 0
KDO1 230448Z 02003KT 14/14 A3009 RMK A01 T01420142  RH  100%=      5-min Rain = 0
KDO1 230449Z 02004KT 14/14 A3009 RMK A01 T01420142  RH  100%=      5-min Rain = 0
KDO1 230450Z 01003KT 14/14 A3009 RMK A01 T01420142  RH  100%=      5-min Rain = 0
KDO1 230451Z 03001KT 14/14 A301 RMK A01 T01420142  RH  100%=      5-min Rain = 0
KDO1 230452Z 03001KT 14/14 A301 RMK A01 T01420142  RH  100%=      5-min Rain = 0
KDO1 230453Z 04003KT 14/14 A301 RMK A01 T01410141  RH  100%=      5-min Rain = 0.01
KDO1 230454Z 06001KT 14/14 A301 RMK A01 T01410141  RH  100%=      5-min Rain = 0
KDO1 230455Z 05002KT 14/14 A301 RMK A01 T01410142  RH  100%=      5-min Rain = 0
KDO1 230456Z 05002KT 14/14 A301 RMK A01 T01420142  RH  100%=      5-min Rain = 0
KDO1 230457Z 07002KT 14/14 A301 RMK A01 T01420142  RH  100%=      5-min Rain = 0
KDO1 230458Z 07002KT 14/14 A301 RMK A01 T01420142  RH  100%=      5-min Rain = 0
KDO1 230459Z 07003KT 14/14 A301 RMK A01 T01410142  RH  100%=      5-min Rain = 0.01

Page generated in 0.0783 seconds.